Flight Track Log - Related Links

Times and Time Zones

All times are in EDT time to prevent confusion due to time zone crossing. See the N662US flight status page for this flight to view local times or setup timezone preferences in your user account.


Time Position Orientation Groundspeed Altitude Reporting Facility
EDT Latitude Longitude Course Direction KTS MPH feet Rate Location/Type
Mon 01:53:09 PM 33.6400 -84.4210 180° South  Level FlightAware ADS-B
Mon 02:01:26 PM 33.6380 -84.4210 180° South 18 21 64 Level FlightAware ADS-B
Mon 02:02:56 PM 33.6370 -84.4210 180° South 16 18 98 Level FlightAware ADS-B
Mon 02:03:38 PM 33.6370 -84.4200 90° East 25 29 109 Level FlightAware ADS-B
Mon 02:04:26 PM 33.6370 -84.4170 90° East 30 35 115 Level FlightAware ADS-B
Mon 02:04:52 PM 33.6370 -84.4150 90° East 26 30 123 Level FlightAware ADS-B
Mon 02:05:17 PM 33.6370 -84.4140 90° East 23 26 127 Level FlightAware ADS-B
Mon 02:05:33 PM 33.6370 -84.4130 90° East 20 23 132 Level FlightAware ADS-B
Mon 02:06:02 PM 33.6370 -84.4120 90° East 16 18 135 Level FlightAware ADS-B
Mon 02:06:36 PM 33.6370 -84.4110 90° East 15 17 141 Level FlightAware ADS-B
Mon 02:07:18 PM 33.6370 -84.4100 90° East 15 17 149 Level FlightAware ADS-B
Mon 02:07:46 PM 33.6370 -84.4090 90° East 14 16 160 Level FlightAware ADS-B
Mon 02:08:39 PM 33.6370 -84.4080 90° East 169 Level FlightAware ADS-B
Mon 02:11:00 PM 33.7803 -84.1667 North  Level FlightAware Approximate
Mon 02:12:00 PM 33.8917 -84.2250 320° Northwest  Level FlightAware Approximate
Mon 02:13:00 PM 33.9910 -84.3242 320° Northwest  Level FlightAware Approximate
Mon 02:14:00 PM 34.0923 -84.4167 North  Level FlightAware Approximate
Mon 02:15:00 PM 34.1969 -84.5047 323° Northwest  Level FlightAware Approximate
Mon 02:16:11 PM 33.6350 -84.4290 270° West 150 173  Level FlightAware ADS-B
Mon 02:16:40 PM 33.6350 -84.4590 270° West 185 213 1,500 2,316 Climbing FlightAware ADS-B
Mon 02:17:08 PM 33.6350 -84.4870 270° West 196 226 2,200 1,200 Climbing FlightAware ADS-B
Mon 02:17:30 PM 33.6360 -84.5140 273° West 224 258 2,500 1,059 Climbing FlightAware ADS-B
Mon 02:17:42 PM 33.6390 -84.5290 284° West 233 268 2,800 1,500 Climbing FlightAware ADS-B
Mon 02:17:58 PM 33.6500 -84.5450 310° West 243 280 3,200 1,000 Climbing FlightAware ADS-B
Mon 02:18:24 PM 33.6770 -84.5670 326° Northwest 274 315 3,500 1,500 Climbing FlightAware ADS-B
Mon 02:18:50 PM 33.7060 -84.5860 331° Northwest 278 320 4,500 2,286 Climbing FlightAware ADS-B
Mon 02:19:06 PM 33.7240 -84.5980 331° Northwest 280 322 5,100 1,909 Climbing FlightAware ADS-B
Mon 02:19:34 PM 33.7560 -84.6230 327° Northwest 293 337 5,900 1,364 Climbing FlightAware ADS-B
Mon 02:19:50 PM 33.7770 -84.6340 336° Northwest 315 362 6,100 1,714 Climbing FlightAware ADS-B
Mon 02:20:02 PM 33.7950 -84.6370 352° North 322 371 6,700 3,300 Climbing FlightAware ADS-B
Mon 02:20:30 PM 33.8340 -84.6340 North 305 351 8,300 2,571 Climbing FlightAware ADS-B
Mon 02:20:58 PM 33.8740 -84.6200 16° North 320 368 9,100 2,182 Climbing FlightAware ADS-B
Mon 02:21:14 PM 33.8950 -84.6090 23° Northeast 313 360 9,900 1,731 Climbing FlightAware ADS-B
Mon 02:21:50 PM 33.9460 -84.5890 18° North 334 384 10,600 1,477 Climbing FlightAware ADS-B
Mon 02:22:19 PM 33.9880 -84.5740 16° North 337 388 11,500 973 Climbing FlightAware ADS-B
Mon 02:23:04 PM 34.0600 -84.5410 21° North 383 441 11,800 706 Climbing FlightAware ADS-B
Mon 02:23:44 PM 34.1300 -84.5120 19° North 412 474 12,500 1,615 Climbing FlightAware ADS-B
Mon 02:24:22 PM 34.1990 -84.4800 21° North 417 480 13,900 1,726 Climbing FlightAware ADS-B
Mon 02:24:57 PM 34.2649 -84.4536 18° North 431 496 14,600 1,277 Climbing FlightAware ADS-B
Mon 02:25:09 PM 34.2891 -84.4497 North 432 497 14,900 1,565 Climbing FlightAware ADS-B
Mon 02:25:20 PM 34.3112 -84.4492 North 432 497 15,200 1,500 Climbing FlightAware ADS-B
Mon 02:25:33 PM 34.3363 -84.4530 353° North 432 497 15,500 1,636 Climbing FlightAware ADS-B
Mon 02:26:04 PM 34.3971 -84.4697 347° North 437 503 16,400 1,645 Climbing FlightAware ADS-B
Mon 02:26:35 PM 34.4585 -84.4877 346° North 443 510 17,200 1,645 Climbing FlightAware ADS-B
Mon 02:27:06 PM 34.5213 -84.5060 346° North 448 516 18,100 1,574 Climbing FlightAware ADS-B
Mon 02:27:36 PM 34.5824 -84.5237 347° North 453 521 18,800 1,500 Climbing FlightAware ADS-B
Mon 02:28:06 PM 34.6444 -84.5415 347° North 459 528 19,600 1,452 Climbing FlightAware ADS-B
Mon 02:28:38 PM 34.7114 -84.5605 347° North 463 533 20,300 1,333 Climbing FlightAware ADS-B
Mon 02:29:09 PM 34.7758 -84.5792 347° North 468 539 21,000 1,355 Climbing FlightAware ADS-B
Mon 02:29:40 PM 34.8423 -84.5980 347° North 473 544 21,700 1,258 Climbing FlightAware ADS-B
Mon 02:30:11 PM 34.9077 -84.6170 347° North 477 549 22,300 1,180 Climbing FlightAware ADS-B
Mon 02:30:41 PM 34.9739 -84.6356 347° North 481 554 22,900 1,082 Climbing FlightAware ADS-B
Mon 02:31:12 PM 35.0397 -84.6546 347° North 486 559 23,400 968 Climbing FlightAware ADS-B
Mon 02:31:43 PM 35.1104 -84.6752 347° North 494 568 23,900 909 Climbing FlightAware ADS-B
Mon 02:32:18 PM 35.1882 -84.6979 347° North 496 571 24,400 857 Climbing FlightAware ADS-B
Mon 02:33:07 PM 35.2989 -84.7297 347° North 508 585 25,100 835 Climbing FlightAware ADS-B
Mon 02:33:37 PM 35.3687 -84.7505 346° North 514 592 25,500 885 Climbing FlightAware ADS-B
Mon 02:34:08 PM 35.4402 -84.7709 347° North 518 596 26,000 984 Climbing FlightAware ADS-B
Mon 02:34:38 PM 35.5115 -84.7921 346° North 521 600 26,500 938 Climbing FlightAware ADS-B
Mon 02:35:12 PM 35.5908 -84.8149 347° North 525 604 27,000 844 Climbing FlightAware ADS-B
Mon 02:35:42 PM 35.6622 -84.8364 346° North 527 606 27,400 957 Climbing FlightAware ADS-B
Mon 02:36:21 PM 35.7510 -84.8620 347° North 526 605 28,100 1,154 Climbing FlightAware ADS-B
Mon 02:36:34 PM 35.7862 -84.8728 346° North 525 604 28,400 1,256 Climbing FlightAware ADS-B
Mon 02:37:04 PM 35.8569 -84.8938 346° North 522 601 29,000 1,200 Climbing FlightAware ADS-B
Mon 02:37:34 PM 35.9281 -84.9145 347° North 521 600 29,600 882 Climbing FlightAware ADS-B
Mon 02:38:12 PM 36.0165 -84.9410 346° North 521 600 30,000 348 Climbing FlightAware ADS-B
Mon 02:38:43 PM 36.0892 -84.9625 347° North 521 600 30,000  Level FlightAware ADS-B
Mon 02:39:13 PM 36.1596 -84.9835 346° North 521 600 30,000  Level FlightAware ADS-B
Mon 02:39:44 PM 36.2315 -85.0045 347° North 520 598 30,000  Level FlightAware ADS-B
Mon 02:40:24 PM 36.3263 -85.0331 346° North 518 596 30,000  Level FlightAware ADS-B
Mon 02:40:55 PM 36.3968 -85.0538 347° North 515 593 30,000  Level FlightAware ADS-B
Mon 02:41:46 PM 36.5167 -85.0900 346° North 515 593 30,000  Level FlightAware ADS-B
Mon 02:42:17 PM 36.5893 -85.1116 347° North 518 596 30,000  Level FlightAware ADS-B
Mon 02:42:49 PM 36.6622 -85.1340 346° North 517 595 30,000  Level FlightAware ADS-B
Mon 02:43:26 PM 36.7492 -85.1601 346° North 516 594 30,000  Level FlightAware ADS-B
Mon 02:43:58 PM 36.8242 -85.1826 346° North 517 595 30,000  Level FlightAware ADS-B
Mon 02:44:31 PM 36.8996 -85.2059 346° North 517 595 30,000  Level FlightAware ADS-B
Mon 02:45:01 PM 36.9703 -85.2271 347° North 519 597 30,000  Level FlightAware ADS-B
Mon 02:45:31 PM 37.0404 -85.2485 346° North 520 598 30,000  Level FlightAware ADS-B
Mon 02:45:49 PM 37.0814 -85.2607 347° North 520 598 30,000  Level FlightAware ADS-B
Mon 02:46:51 PM 37.2080 -85.3290 337° Northwest 512 589 30,000  Level FlightAware ADS-B
Mon 02:47:32 PM 37.2910 -85.4040 324° Northwest 508 585 30,000  Level FlightAware ADS-B
Mon 02:48:02 PM 37.3430 -85.4500 325° Northwest 506 582 30,000  Level FlightAware ADS-B
Mon 02:48:45 PM 37.4330 -85.5310 324° Northwest 505 581 30,000  Level FlightAware ADS-B
Mon 02:49:27 PM 37.5120 -85.6030 324° Northwest 501 577 30,000  Level FlightAware ADS-B
Mon 02:50:13 PM 37.5990 -85.6810 325° Northwest 495 570 30,000  Level FlightAware ADS-B
Mon 02:50:40 PM 37.6480 -85.7270 323° Northwest 493 567 30,000  Level FlightAware ADS-B
Mon 02:51:18 PM 37.7190 -85.7930 324° Northwest 491 565 30,000  Level FlightAware ADS-B
Mon 02:51:50 PM 37.7780 -85.8450 325° Northwest 489 563 30,000  Level FlightAware ADS-B
Mon 02:52:22 PM 37.8350 -85.8990 323° Northwest 489 563 30,000  Level FlightAware ADS-B
Mon 02:53:00 PM 37.9060 -85.9620 325° Northwest 487 560 30,000  Level FlightAware ADS-B
Mon 02:53:40 PM 37.9800 -86.0280 325° Northwest 487 560 30,000  Level FlightAware ADS-B
Mon 02:54:20 PM 38.0530 -86.0930 325° Northwest 483 556 30,000  Level FlightAware ADS-B
Mon 02:55:00 PM 38.1270 -86.1600 325° Northwest 480 552 30,000  Level FlightAware ADS-B
Mon 02:55:42 PM 38.2030 -86.2270 325° Northwest 479 551 30,000  Level FlightAware ADS-B
Mon 02:56:19 PM 38.2680 -86.2860 325° Northwest 479 551 30,000  Level FlightAware ADS-B
Mon 02:56:56 PM 38.3360 -86.3480 324° Northwest 480 552 30,000  Level FlightAware ADS-B
Mon 02:57:36 PM 38.4080 -86.4140 324° Northwest 483 556 30,000  Level FlightAware ADS-B
Mon 02:58:20 PM 38.4900 -86.4880 325° Northwest 485 558 30,000  Level FlightAware ADS-B
Mon 02:59:00 PM 38.5610 -86.5510 325° Northwest 487 560 30,000  Level FlightAware ADS-B
Mon 02:59:38 PM 38.6330 -86.6170 324° Northwest 486 559 30,000  Level FlightAware ADS-B
Mon 03:02:11 PM 38.8770 -86.8440 324° Northwest 486 559 30,000  Level FlightAware ADS-B
Mon 03:02:57 PM 38.9950 -86.9500 325° Northwest 477 549 30,000  Level FlightAware ADS-B
Mon 03:03:34 PM 39.0620 -87.0110 325° Northwest 477 549 30,000  Level FlightAware ADS-B
Mon 03:04:09 PM 39.1230 -87.0680 324° Northwest 478 550 30,000  Level FlightAware ADS-B
Mon 03:04:49 PM 39.1960 -87.1340 325° Northwest 477 549 30,000  Level FlightAware ADS-B
Mon 03:05:31 PM 39.2700 -87.2040 324° Northwest 477 549 30,000  Level FlightAware ADS-B
Mon 03:06:14 PM 39.3440 -87.2730 324° Northwest 477 549 30,000  Level FlightAware ADS-B
Mon 03:06:58 PM 39.4270 -87.3500 324° Northwest 478 550 30,000  Level FlightAware ADS-B
Mon 03:07:30 PM 39.4840 -87.4060 323° Northwest 477 549 30,000  Level FlightAware ADS-B
Mon 03:08:10 PM 39.5520 -87.4680 325° Northwest 477 549 30,000  Level FlightAware ADS-B
Mon 03:08:55 PM 39.6340 -87.5450 324° Northwest 476 548 30,000  Level FlightAware ADS-B
Mon 03:09:34 PM 39.7040 -87.6130 323° Northwest 475 547 30,000  Level FlightAware ADS-B
Mon 03:10:15 PM 39.7750 -87.6780 325° Northwest 475 547 30,000  Level FlightAware ADS-B
Mon 03:10:55 PM 39.8500 -87.7490 324° Northwest 476 548 30,000  Level FlightAware ADS-B
Mon 03:11:48 PM 39.9330 -87.8290 324° Northwest 476 548 30,000  Level FlightAware ADS-B
Mon 03:12:29 PM 40.0160 -87.9090 324° Northwest 475 547 30,000  Level FlightAware ADS-B
Mon 03:13:07 PM 40.0810 -87.9720 323° Northwest 475 547 30,000  Level FlightAware ADS-B
Mon 03:13:53 PM 40.1650 -88.0520 324° Northwest 477 549 30,000  Level FlightAware ADS-B
Mon 03:14:34 PM 40.2380 -88.1220 324° Northwest 476 548 30,000  Level FlightAware ADS-B
Mon 03:15:16 PM 40.3130 -88.1940 324° Northwest 477 549 30,000  Level FlightAware ADS-B
Mon 03:16:00 PM 40.3910 -88.2720 323° Northwest 479 551 30,000  Level FlightAware ADS-B
Mon 03:16:38 PM 40.4570 -88.3360 324° Northwest 479 551 30,000  Level FlightAware ADS-B
Mon 03:17:24 PM 40.5410 -88.4180 323° Northwest 479 551 30,000  Level FlightAware ADS-B
Mon 03:18:04 PM 40.6130 -88.4880 324° Northwest 479 551 30,000  Level FlightAware ADS-B
Mon 03:18:48 PM 40.6890 -88.5630 323° Northwest 480 552 30,000  Level FlightAware ADS-B
Mon 03:19:30 PM 40.7650 -88.6380 323° Northwest 480 552 30,000  Level FlightAware ADS-B
Mon 03:20:14 PM 40.8440 -88.7160 323° Northwest 480 552 30,000  Level FlightAware ADS-B
Mon 03:20:56 PM 40.9160 -88.7880 323° Northwest 479 551 30,000  Level FlightAware ADS-B
Mon 03:21:20 PM 40.9610 -88.8300 325° Northwest 478 550 30,000  Level FlightAware ADS-B
Mon 03:22:00 PM 41.0310 -88.9000 323° Northwest 477 549 30,000  Level FlightAware ADS-B
Mon 03:22:38 PM 41.0950 -88.9650 323° Northwest 477 549 30,000  Level FlightAware ADS-B
Mon 03:23:20 PM 41.1730 -89.0430 323° Northwest 477 549 30,000  Level FlightAware ADS-B
Mon 03:24:04 PM 41.2470 -89.1170 323° Northwest 478 550 30,000  Level FlightAware ADS-B
Mon 03:24:41 PM 41.3140 -89.1850 323° Northwest 478 550 30,000  Level FlightAware ADS-B
Mon 03:25:20 PM 41.3830 -89.2540 323° Northwest 479 551 30,000  Level FlightAware ADS-B
Mon 03:26:04 PM 41.4620 -89.3340 323° Northwest 478 550 30,000  Level FlightAware ADS-B
Mon 03:26:32 PM 41.5120 -89.3840 323° Northwest 480 552 30,000  Level FlightAware ADS-B
Mon 03:27:12 PM 41.5780 -89.4510 323° Northwest 480 552 30,000  Level FlightAware ADS-B
Mon 03:27:52 PM 41.6500 -89.5250 322° Northwest 480 552 30,000  Level FlightAware ADS-B
Mon 03:28:20 PM 41.7020 -89.5770 323° Northwest 480 552 30,000  Level FlightAware ADS-B
Mon 03:29:06 PM 41.7830 -89.6620 322° Northwest 480 552 30,000  Level FlightAware ADS-B
Mon 03:29:34 PM 41.8330 -89.7130 323° Northwest 479 551 30,000  Level FlightAware ADS-B
Mon 03:30:06 PM 41.8850 -89.7650 323° Northwest 479 551 30,000  Level FlightAware ADS-B
Mon 03:30:50 PM 41.9640 -89.8470 322° Northwest 479 551 30,000  Level FlightAware ADS-B
Mon 03:31:20 PM 42.0190 -89.9050 322° Northwest 478 550 30,000  Level FlightAware ADS-B
Mon 03:31:55 PM 42.0800 -89.9670 323° Northwest 479 551 30,000  Level FlightAware ADS-B
Mon 03:32:36 PM 42.1500 -90.0400 322° Northwest 478 550 30,000  Level FlightAware ADS-B
Mon 03:33:16 PM 42.2220 -90.1170 322° Northwest 480 552 30,000  Level FlightAware ADS-B
Mon 03:33:54 PM 42.2900 -90.1870 323° Northwest 481 554 30,000  Level FlightAware ADS-B
Mon 03:34:34 PM 42.3590 -90.2580 323° Northwest 481 554 30,000  Level FlightAware ADS-B
Mon 03:35:18 PM 42.4310 -90.3350 322° Northwest 482 555 30,000  Level FlightAware ADS-B
Mon 03:35:58 PM 42.5060 -90.4150 322° Northwest 483 556 30,000  Level FlightAware ADS-B
Mon 03:36:38 PM 42.5760 -90.4870 323° Northwest 485 558 30,000  Level FlightAware ADS-B
Mon 03:37:18 PM 42.6450 -90.5630 321° Northwest 484 557 30,000  Level FlightAware ADS-B
Mon 03:37:56 PM 42.7160 -90.6380 322° Northwest 484 557 30,000  Level FlightAware ADS-B
Mon 03:38:40 PM 42.7930 -90.7210 322° Northwest 484 557 30,000  Level FlightAware ADS-B
Mon 03:39:18 PM 42.8560 -90.7870 322° Northwest 483 556 30,000  Level FlightAware ADS-B
Mon 03:39:56 PM 42.9250 -90.8600 322° Northwest 482 555 30,000  Level FlightAware ADS-B
Mon 03:40:42 PM 43.0060 -90.9490 321° Northwest 481 554 30,000  Level FlightAware ADS-B
Mon 03:41:18 PM 43.0710 -91.0190 322° Northwest 480 552 30,000  Level FlightAware ADS-B
Mon 03:42:02 PM 43.1470 -91.1020 321° Northwest 480 552 30,000  Level FlightAware ADS-B
Mon 03:42:56 PM 43.2410 -91.2040 322° Northwest 481 554 30,000  Level FlightAware ADS-B
Mon 03:43:38 PM 43.3140 -91.2830 322° Northwest 483 556 30,000  Level FlightAware ADS-B
Mon 03:44:19 PM 43.3850 -91.3610 321° Northwest 483 556 30,000  Level FlightAware ADS-B
Mon 03:44:58 PM 43.4550 -91.4380 321° Northwest 483 556 30,000  Level FlightAware ADS-B
Mon 03:45:38 PM 43.5240 -91.5150 321° Northwest 483 556 30,000  Level FlightAware ADS-B
Mon 03:46:19 PM 43.5940 -91.5920 321° Northwest 483 556 30,000  Level FlightAware ADS-B
Mon 03:47:02 PM 43.6700 -91.6750 322° Northwest 484 557 30,000  Level FlightAware ADS-B
Mon 03:47:47 PM 43.7480 -91.7630 321° Northwest 486 559 30,000  Level FlightAware ADS-B
Mon 03:48:26 PM 43.8180 -91.8410 321° Northwest 488 562 30,000  Level FlightAware ADS-B
Mon 03:49:10 PM 43.8950 -91.9260 322° Northwest 489 563 30,000  Level FlightAware ADS-B
Mon 03:49:42 PM 43.9520 -91.9910 321° Northwest 487 560 30,000  Level FlightAware ADS-B
Mon 03:50:26 PM 44.0290 -92.0780 321° Northwest 484 557 30,000  Level FlightAware ADS-B
Mon 03:51:06 PM 44.0980 -92.1560 321° Northwest 480 552 30,000  Level FlightAware ADS-B
Mon 03:51:52 PM 44.1760 -92.2440 321° Northwest 476 548 30,000  Level FlightAware ADS-B
Mon 03:52:32 PM 44.2440 -92.3230 320° Northwest 474 545 30,000  Level FlightAware ADS-B
Mon 03:53:14 PM 44.3160 -92.4040 321° Northwest 472 543 30,000  Level FlightAware ADS-B
Mon 03:53:44 PM 44.3660 -92.4630 320° Northwest 473 544 30,000  Level FlightAware ADS-B
Mon 03:54:24 PM 44.4330 -92.5380 321° Northwest 474 545 30,000  Level FlightAware ADS-B
Mon 03:55:08 PM 44.5080 -92.6250 320° Northwest 474 545 30,000  Level FlightAware ADS-B
Mon 03:55:46 PM 44.5730 -92.7010 320° Northwest 473 544 30,000  Level FlightAware ADS-B
Mon 03:56:24 PM 44.6370 -92.7750 321° Northwest 472 543 30,000  Level FlightAware ADS-B
Mon 03:57:06 PM 44.7070 -92.8550 321° Northwest 471 542 30,000  Level FlightAware ADS-B
Mon 03:57:48 PM 44.7760 -92.9360 320° Northwest 471 542 30,000  Level FlightAware ADS-B
Mon 03:58:28 PM 44.8450 -93.0160 321° Northwest 472 543 30,000  Level FlightAware ADS-B
Mon 03:59:12 PM 44.9200 -93.1050 320° Northwest 472 543 30,000  Level FlightAware ADS-B
Mon 03:59:53 PM 44.9880 -93.1860 320° Northwest 471 542 30,000  Level FlightAware ADS-B
Mon 04:00:37 PM 45.0600 -93.2710 320° Northwest 471 542 30,000  Level FlightAware ADS-B
Mon 04:01:11 PM 45.1160 -93.3370 320° Northwest 471 542 30,000  Level FlightAware ADS-B
Mon 04:01:56 PM 45.1790 -93.4450 310° West 468 539 30,000  Level FlightAware ADS-B
Mon 04:02:41 PM 45.2310 -93.5610 303° West 467 537 30,000  Level FlightAware ADS-B
Mon 04:03:22 PM 45.2780 -93.6670 302° West 466 536 30,000  Level FlightAware ADS-B
Mon 04:04:01 PM 45.3240 -93.7700 302° West 465 535 30,000  Level FlightAware ADS-B
Mon 04:04:47 PM 45.3760 -93.8860 303° West 464 534 30,000  Level FlightAware ADS-B
Mon 04:05:31 PM 45.4270 -94.0000 303° West 463 533 30,000  Level FlightAware ADS-B
Mon 04:06:11 PM 45.4730 -94.1060 302° West 462 532 30,000  Level FlightAware ADS-B
Mon 04:06:55 PM 45.5230 -94.2190 302° West 462 532 30,000  Level FlightAware ADS-B
Mon 04:07:35 PM 45.5670 -94.3200 302° West 461 531 30,000  Level FlightAware ADS-B
Mon 04:08:15 PM 45.6130 -94.4260 302° West 460 529 30,000  Level FlightAware ADS-B
Mon 04:08:57 PM 45.6590 -94.5340 301° West 460 529 30,000  Level FlightAware ADS-B
Mon 04:09:41 PM 45.7080 -94.6450 302° West 459 528 30,000  Level FlightAware ADS-B
Mon 04:10:17 PM 45.7490 -94.7410 301° West 458 527 30,000  Level FlightAware ADS-B
Mon 04:10:57 PM 45.7940 -94.8440 302° West 458 527 30,000  Level FlightAware ADS-B
Mon 04:11:41 PM 45.8410 -94.9550 301° West 457 526 30,000  Level FlightAware ADS-B
Mon 04:12:29 PM 45.8960 -95.0820 302° West 457 526 30,000  Level FlightAware ADS-B
Mon 04:13:11 PM 45.9270 -95.1570 301° West 457 526 30,000  Level FlightAware ADS-B
Mon 04:14:14 PM 46.0200 -95.3430 306° West 458 527 30,000  Level FlightAware ADS-B
Mon 04:14:51 PM 46.0630 -95.4370 303° West 458 527 30,000  Level FlightAware ADS-B
Mon 04:15:33 PM 46.1130 -95.5420 305° West 458 527 30,000  Level FlightAware ADS-B
Mon 04:16:33 PM 46.1800 -95.6790 305° West 457 526 30,000  Level FlightAware ADS-B
Mon 04:17:19 PM 46.2280 -95.7770 305° West 457 526 30,000  Level FlightAware ADS-B
Mon 04:17:59 PM 46.2870 -95.8900 307° West 458 527 30,000  Level FlightAware ADS-B
Mon 04:18:33 PM 46.3220 -95.9630 305° West 458 527 30,000  Level FlightAware ADS-B
Mon 04:19:21 PM 46.3720 -96.0650 305° West 458 527 30,000  Level FlightAware ADS-B
Mon 04:20:01 PM 46.4390 -96.2010 306° West 456 525 30,000  Level FlightAware ADS-B
Mon 04:20:53 PM 46.5010 -96.3260 306° West 458 527 30,000  Level FlightAware ADS-B
Mon 04:21:55 PM 46.5830 -96.4960 305° West 461 531 30,000  Level FlightAware ADS-B
Mon 04:22:22 PM 46.6110 -96.5540 305° West 461 531 30,000  Level FlightAware ADS-B
Mon 04:23:00 PM 46.6510 -96.6360 305° West 461 531 30,000  Level FlightAware ADS-B
Mon 04:23:36 PM 46.6880 -96.7140 305° West 461 531 30,000  Level FlightAware ADS-B
Mon 04:24:30 PM 46.7680 -96.8920 303° West 462 532 30,000  Level FlightAware ADS-B
Mon 04:25:29 PM 46.8250 -97.0350 300° West 463 533 30,000  Level FlightAware ADS-B
Mon 04:26:06 PM 46.8590 -97.1200 300° West 463 533 30,000  Level FlightAware ADS-B
Mon 04:26:43 PM 46.8920 -97.2050 300° West 463 533 30,000  Level FlightAware ADS-B
Mon 04:27:23 PM 46.9310 -97.3350 294° West 462 532 30,000  Level FlightAware ADS-B
Mon 04:28:02 PM 46.9810 -97.4740 298° West 463 533 30,000  Level FlightAware ADS-B
Mon 04:28:49 PM 47.0300 -97.6120 298° West 463 533 30,000  Level FlightAware ADS-B
Mon 04:29:29 PM 47.0700 -97.7240 298° West 464 534 30,000  Level FlightAware ADS-B
Mon 04:30:13 PM 47.1140 -97.8470 298° West 463 533 30,000  Level FlightAware ADS-B
Mon 04:31:06 PM 47.1610 -97.9810 297° West 463 533 30,000  Level FlightAware ADS-B
Mon 04:31:45 PM 47.2050 -98.1010 298° West 463 533 30,000  Level FlightAware ADS-B
Mon 04:32:42 PM 47.2580 -98.2520 297° West 463 533 30,000  Level FlightAware ADS-B
Mon 04:33:18 PM 47.2870 -98.3380 296° West 463 533 30,000  Level FlightAware ADS-B
Mon 04:33:59 PM 47.3320 -98.4650 298° West 465 535 30,000  Level FlightAware ADS-B
Mon 04:34:48 PM 47.3730 -98.5830 297° West 465 535 30,000  Level FlightAware ADS-B
Mon 04:35:25 PM 47.4030 -98.6720 297° West 465 535 30,000  Level FlightAware ADS-B
Mon 04:36:26 PM 47.4540 -98.8190 297° West 465 535 30,000  Level FlightAware ADS-B
Mon 04:37:14 PM 47.4940 -98.9350 297° West 465 535 30,000  Level FlightAware ADS-B
Mon 04:37:50 PM 47.5240 -99.0220 297° West 465 535 30,000  Level FlightAware ADS-B
Mon 04:38:26 PM 47.5540 -99.1090 297° West 465 535 30,000  Level FlightAware ADS-B
Mon 04:39:15 PM 47.5940 -99.2270 297° West 465 535 30,000  Level FlightAware ADS-B
Mon 04:39:53 PM 47.6260 -99.3190 297° West 465 535 30,000  Level FlightAware ADS-B
Mon 04:40:30 PM 47.6570 -99.4080 297° West 465 535 30,000  Level FlightAware ADS-B
Mon 04:41:15 PM 47.7580 -99.7200 296° West 468 539 30,000  Level FlightAware ADS-B
Mon 04:41:55 PM 47.7920 -99.8230 296° West 468 539 30,000  Level FlightAware ADS-B
Mon 04:42:42 PM 47.8410 -99.9740 296° West 469 540 30,000  Level FlightAware ADS-B
Mon 04:43:19 PM 47.8770 -100.0840 296° West 468 539 30,000  Level FlightAware ADS-B
Mon 04:43:59 PM 47.9150 -100.2000 296° West 466 536 30,000  Level FlightAware ADS-B
Mon 04:44:43 PM 47.9560 -100.3240 296° West 465 535 30,000  Level FlightAware ADS-B
Mon 04:45:17 PM 47.9860 -100.4190 295° West 464 534 30,000  Level FlightAware ADS-B
Mon 04:45:51 PM 48.0190 -100.5230 295° West 462 532 30,000  Level FlightAware ADS-B
Mon 04:46:41 PM 48.0580 -100.6460 295° West 462 532 30,000  Level FlightAware ADS-B
Mon 04:47:17 PM 48.0850 -100.7350 294° West 462 532 30,000  Level FlightAware ADS-B
Mon 04:48:07 PM 48.1240 -100.8580 295° West 462 532 30,000  Level FlightAware ADS-B
Mon 04:48:43 PM 48.1510 -100.9470 294° West 462 532 30,000  Level FlightAware ADS-B
Mon 04:49:31 PM 48.1880 -101.0660 295° West 462 532 30,000  Level FlightAware ADS-B
Mon 04:50:07 PM 48.2160 -101.1540 296° West 462 532 30,000  Level FlightAware ADS-B
Mon 04:50:43 PM 48.2430 -101.2430 295° West 462 532 30,000  Level FlightAware ADS-B
Mon 04:51:19 PM 48.2710 -101.3320 295° West 462 532 30,000  Level FlightAware ADS-B
Mon 04:52:07 PM 48.3080 -101.4510 295° West 462 532 30,000  Level FlightAware ADS-B
Mon 04:52:44 PM 48.3360 -101.5430 295° West 462 532 30,000  Level FlightAware ADS-B
Mon 04:53:32 PM 48.3730 -101.6620 295° West 462 532 30,000  Level FlightAware ADS-B
Mon 04:54:09 PM 48.4010 -101.7540 295° West 462 532 30,000  Level FlightAware ADS-B
Mon 04:54:58 PM 48.4390 -101.8750 295° West 462 532 30,000  Level FlightAware ADS-B
Mon 04:55:34 PM 48.4670 -101.9650 295° West 462 532 30,000  Level FlightAware ADS-B
Mon 04:56:07 PM 48.7997 -102.0531 295° West 466 536 30,000  Level Minneapolis Center
Mon 04:57:00 PM 48.8667 -102.1833 308° West 470 541 30,000  Level Winnipeg Center
Mon 04:58:00 PM 48.9667 -102.3500 312° West 470 541 30,000  Level Winnipeg Center
Mon 04:59:00 PM 49.0667 -102.4500 327° Northwest 470 541 30,000  Level Winnipeg Center
Mon 05:00:00 PM 49.1500 -102.6000 310° West 470 541 30,000  Level Winnipeg Center
Mon 05:01:00 PM 49.2500 -102.7333 319° Northwest 470 541 30,000  Level Winnipeg Center
Mon 05:02:00 PM 49.3333 -102.8667 314° West 470 541 30,000  Level Winnipeg Center
Mon 05:03:00 PM 49.4333 -103.0167 316° Northwest 470 541 30,000  Level Winnipeg Center
Mon 05:08:25 PM 49.9270 -103.7230 316° Northwest 470 541 30,000  Level FlightAware ADS-B
Mon 05:09:06 PM 49.9860 -103.8140 315° West 470 541 30,000  Level FlightAware ADS-B
Mon 05:09:42 PM 50.0400 -103.8970 315° West 470 541 30,000  Level FlightAware ADS-B
Mon 05:10:20 PM 50.1010 -103.9930 315° West 469 540 30,000  Level FlightAware ADS-B
Mon 05:11:06 PM 50.1560 -104.0780 315° West 469 540 30,000  Level FlightAware ADS-B
Mon 05:11:46 PM 50.2190 -104.1760 315° West 468 539 30,000  Level FlightAware ADS-B
Mon 05:12:31 PM 50.2950 -104.2980 314° West 465 535 30,000  Level FlightAware ADS-B
Mon 05:13:07 PM 50.3600 -104.3980 316° Northwest 463 533 30,000  Level FlightAware ADS-B
Mon 05:13:52 PM 50.4190 -104.4910 315° West 463 533 30,000  Level FlightAware ADS-B
Mon 05:14:32 PM 50.4880 -104.6010 315° West 465 535 30,000  Level FlightAware ADS-B
Mon 05:15:05 PM 50.5340 -104.6760 314° West 466 536 30,000  Level FlightAware ADS-B
Mon 05:16:02 PM 50.6190 -104.8120 315° West 468 539 30,000 535 Level FlightAware ADS-B
Mon 05:16:46 PM 50.6900 -104.9410 311° West 467 537 30,900 1,186 Climbing FlightAware ADS-B
Mon 05:17:28 PM 50.7400 -105.0560 305° West 467 537 31,700 795 Climbing FlightAware ADS-B
Mon 05:18:09 PM 50.7890 -105.1670 305° West 466 536 32,000 220 Climbing FlightAware ADS-B
Mon 05:18:50 PM 50.8420 -105.2880 305° West 463 533 32,000  Level FlightAware ADS-B
Mon 05:19:27 PM 50.8830 -105.3850 304° West 462 532 32,000  Level FlightAware ADS-B
Mon 05:20:09 PM 50.9350 -105.5060 304° West 462 532 32,000  Level FlightAware ADS-B
Mon 05:21:02 PM 51.0000 -105.6570 304° West 462 532 32,000  Level FlightAware ADS-B
Mon 05:21:45 PM 51.0520 -105.7810 304° West 462 532 32,000  Level FlightAware ADS-B
Mon 05:22:20 PM 51.0880 -105.8660 304° West 463 533 32,000  Level FlightAware ADS-B
Mon 05:23:04 PM 51.1450 -106.0020 304° West 464 534 32,000  Level FlightAware ADS-B
Mon 05:23:48 PM 51.1990 -106.1290 304° West 464 534 32,000  Level FlightAware ADS-B
Mon 05:24:28 PM 51.2340 -106.2120 304° West 463 533 32,000  Level FlightAware ADS-B
Mon 05:25:08 PM 51.2730 -106.3090 303° West 463 533 32,000  Level FlightAware ADS-B
Mon 05:25:56 PM 51.3210 -106.4260 303° West 463 533 32,000  Level FlightAware ADS-B
Mon 05:26:32 PM 51.3570 -106.5140 303° West 463 533 32,000  Level FlightAware ADS-B
Mon 05:27:16 PM 51.4200 -106.6650 304° West 461 531 32,000  Level FlightAware ADS-B
Mon 05:27:50 PM 51.4540 -106.7480 303° West 461 531 32,000  Level FlightAware ADS-B
Mon 05:28:28 PM 51.4910 -106.8410 303° West 461 531 32,000  Level FlightAware ADS-B
Mon 05:29:52 PM 51.5740 -107.0460 303° West 461 531 32,000  Level FlightAware ADS-B
Mon 05:30:28 PM 51.6100 -107.1340 303° West 461 531 32,000  Level FlightAware ADS-B
Mon 05:31:15 PM 51.6560 -107.2500 303° West 461 531 32,000  Level FlightAware ADS-B
Mon 05:32:03 PM 51.7030 -107.3670 303° West 461 531 32,000  Level FlightAware ADS-B
Mon 05:32:40 PM 51.7400 -107.4580 303° West 461 531 32,000  Level FlightAware ADS-B
Mon 05:33:17 PM 51.7770 -107.5490 303° West 461 531 32,000  Level FlightAware ADS-B
Mon 05:34:06 PM 51.8250 -107.6690 303° West 461 531 32,000  Level FlightAware ADS-B
Mon 05:35:04 PM 51.8820 -107.8120 303° West 461 531 32,000  Level FlightAware ADS-B
Mon 05:35:40 PM 51.9180 -107.9010 303° West 461 531 32,000  Level FlightAware ADS-B
Mon 05:36:28 PM 51.9650 -108.0190 303° West 461 531 32,000  Level FlightAware ADS-B
Mon 05:37:00 PM 52.1167 -108.5000 303° West 460 529 32,000  Level Winnipeg Center
Mon 05:38:00 PM 52.1833 -108.6500 306° West 470 541 32,000  Level Winnipeg Center
Mon 05:39:00 PM 52.2500 -108.8667 297° West 470 541 32,000  Level Winnipeg Center
Mon 05:40:00 PM 52.3167 -109.0333 303° West 460 529 32,000  Level Winnipeg Center
Mon 05:41:00 PM 52.4000 -109.2167 307° West 460 529 32,000  Level Winnipeg Center
Mon 05:42:00 PM 52.4333 -109.4000 287° West 460 529 32,000  Level Winnipeg Center
Mon 05:47:20 PM 52.7990 -110.3360 287° West 456 525 32,000  Level FlightAware ADS-B
Mon 05:47:56 PM 52.8310 -110.4470 296° West 456 525 32,000  Level FlightAware ADS-B
Mon 05:48:42 PM 52.8700 -110.5890 295° West 456 525 32,000  Level FlightAware ADS-B
Mon 05:49:16 PM 52.9020 -110.6990 296° West 456 525 32,000  Level FlightAware ADS-B
Mon 05:49:55 PM 52.9350 -110.8200 294° West 457 526 32,000  Level FlightAware ADS-B
Mon 05:50:40 PM 52.9760 -110.9660 295° West 452 520 32,000  Level FlightAware ADS-B
Mon 05:51:16 PM 53.0070 -111.0800 294° West 451 519 32,000  Level FlightAware ADS-B
Mon 05:52:00 PM 53.0460 -111.2230 294° West 451 519 32,000  Level FlightAware ADS-B
Mon 05:52:46 PM 53.0860 -111.3650 295° West 450 518 32,000  Level FlightAware ADS-B
Mon 05:53:25 PM 53.1200 -111.4920 294° West 450 518 32,000  Level FlightAware ADS-B
Mon 05:54:06 PM 53.1550 -111.6190 295° West 450 518 32,000  Level FlightAware ADS-B
Mon 05:54:50 PM 53.1930 -111.7630 294° West 450 518 32,000  Level FlightAware ADS-B
Mon 05:55:30 PM 53.2270 -111.8870 295° West 449 517 32,000  Level FlightAware ADS-B
Mon 05:56:11 PM 53.2610 -112.0180 293° West 450 518 32,000  Level FlightAware ADS-B
Mon 05:56:55 PM 53.2990 -112.1630 294° West 452 520 32,000  Level FlightAware ADS-B
Mon 05:57:36 PM 53.3330 -112.2910 294° West 452 520 32,000  Level FlightAware ADS-B
Mon 05:58:20 PM 53.3710 -112.4360 294° West 455 524 32,000  Level FlightAware ADS-B
Mon 05:58:56 PM 53.4010 -112.5490 294° West 454 522 32,000  Level FlightAware ADS-B
Mon 05:59:35 PM 53.4330 -112.6780 293° West 452 520 32,000  Level FlightAware ADS-B
Mon 06:00:20 PM 53.4700 -112.8230 293° West 453 521 32,000  Level FlightAware ADS-B
Mon 06:01:01 PM 53.5040 -112.9520 294° West 453 521 32,000  Level FlightAware ADS-B
Mon 06:01:45 PM 53.5400 -113.0940 293° West 453 521 32,000  Level FlightAware ADS-B
Mon 06:02:21 PM 53.5690 -113.2110 293° West 451 519 32,000  Level FlightAware ADS-B
Mon 06:03:05 PM 53.6050 -113.3560 293° West 451 519 32,000  Level FlightAware ADS-B
Mon 06:03:41 PM 53.6340 -113.4690 293° West 445 512 32,000  Level FlightAware ADS-B
Mon 06:04:21 PM 53.6900 -113.5790 311° West 461 531 32,000  Level FlightAware ADS-B
Mon 06:05:06 PM 53.7630 -113.6840 320° Northwest 461 531 32,000  Level FlightAware ADS-B
Mon 06:05:47 PM 53.8280 -113.7770 320° Northwest 461 531 32,000  Level FlightAware ADS-B
Mon 06:06:31 PM 53.9010 -113.8820 320° Northwest 455 524 32,000  Level FlightAware ADS-B
Mon 06:07:12 PM 53.9650 -113.9780 319° Northwest 453 521 32,000  Level FlightAware ADS-B
Mon 06:07:52 PM 54.0180 -114.0870 310° West 454 522 32,000  Level FlightAware ADS-B
Mon 06:08:37 PM 54.0800 -114.2140 310° West 447 514 32,000  Level FlightAware ADS-B
Mon 06:09:16 PM 54.1300 -114.3200 309° West 448 516 32,000  Level FlightAware ADS-B
Mon 06:10:01 PM 54.1880 -114.4450 308° West 448 516 32,000  Level FlightAware ADS-B
Mon 06:10:42 PM 54.2420 -114.5590 309° West 447 514 32,000  Level FlightAware ADS-B
Mon 06:11:26 PM 54.3000 -114.6850 308° West 446 513 32,000  Level FlightAware ADS-B
Mon 06:12:07 PM 54.3520 -114.7970 309° West 450 518 32,000  Level FlightAware ADS-B
Mon 06:12:41 PM 54.3970 -114.8950 308° West 448 516 32,000  Level FlightAware ADS-B
Mon 06:13:17 PM 54.4420 -114.9930 308° West 448 516 32,000  Level FlightAware ADS-B
Mon 06:14:01 PM 54.4980 -115.1200 307° West 448 516 32,000  Level FlightAware ADS-B
Mon 06:14:47 PM 54.5560 -115.2460 308° West 448 516 32,000  Level FlightAware ADS-B
Mon 06:15:28 PM 54.6070 -115.3620 307° West 449 517 32,000  Level FlightAware ADS-B
Mon 06:16:12 PM 54.6640 -115.4890 308° West 450 518 32,000  Level FlightAware ADS-B
Mon 06:16:53 PM 54.7150 -115.6030 308° West 450 518 32,000  Level FlightAware ADS-B
Mon 06:17:27 PM 54.7590 -115.7030 307° West 449 517 32,000  Level FlightAware ADS-B
Mon 06:18:08 PM 54.8100 -115.8180 308° West 448 516 32,000  Level FlightAware ADS-B
Mon 06:18:52 PM 54.8660 -115.9460 307° West 442 509 32,000  Level FlightAware ADS-B
Mon 06:19:28 PM 54.9110 -116.0490 307° West 440 506 32,000  Level FlightAware ADS-B
Mon 06:19:52 PM 54.9410 -116.1170 308° West 440 506 32,000  Level FlightAware ADS-B
Mon 06:21:02 PM 55.0260 -116.3140 307° West 438 504 32,000  Level FlightAware ADS-B
Mon 06:21:43 PM 55.0750 -116.4280 307° West 438 504 32,000  Level FlightAware ADS-B
Mon 06:22:17 PM 55.1160 -116.5250 306° West 438 504 32,000  Level FlightAware ADS-B
Mon 06:23:31 PM 55.1870 -116.7010 305° West 438 504 32,000  Level FlightAware ADS-B
Mon 06:24:19 PM 55.2350 -116.8200 305° West 438 504 32,000  Level FlightAware ADS-B
Mon 06:24:56 PM 55.2710 -116.9110 305° West 438 504 32,000  Level FlightAware ADS-B
Mon 06:25:44 PM 55.3190 -117.0300 305° West 438 504 32,000  Level FlightAware ADS-B
Mon 06:26:20 PM 55.3540 -117.1200 304° West 438 504 32,000  Level FlightAware ADS-B
Mon 06:26:56 PM 55.3900 -117.2090 305° West 438 504 32,000  Level FlightAware ADS-B
Mon 06:27:56 PM 55.4490 -117.3580 305° West 438 504 32,000  Level FlightAware ADS-B
Mon 06:28:32 PM 55.4840 -117.4480 304° West 438 504 32,000  Level FlightAware ADS-B
Mon 06:29:08 PM 55.5200 -117.5370 306° West 438 504 32,000  Level FlightAware ADS-B
Mon 06:29:56 PM 55.5670 -117.6570 305° West 438 504 32,000  Level FlightAware ADS-B
Mon 06:30:45 PM 55.6160 -117.7800 305° West 438 504 32,000  Level FlightAware ADS-B
Mon 06:31:21 PM 55.6510 -117.8700 305° West 438 504 32,000  Level FlightAware ADS-B
Mon 06:32:09 PM 55.6990 -117.9900 305° West 438 504 32,000  Level FlightAware ADS-B
Mon 06:33:12 PM 55.8833 -118.4833 305° West 430 495 32,000  Level Edmonton Center
Mon 06:34:12 PM 55.9333 -118.6167 304° West 430 495 32,000  Level Edmonton Center
Mon 06:35:12 PM 56.0167 -118.8333 305° West 430 495 32,000  Level Edmonton Center
Mon 06:36:12 PM 56.0833 -118.9833 309° West 430 495 32,000  Level Edmonton Center
Mon 06:37:12 PM 56.1500 -119.1667 303° West 430 495 32,000  Level Edmonton Center
Mon 06:38:12 PM 56.2167 -119.3500 303° West 430 495 32,000  Level Edmonton Center
Mon 06:39:12 PM 56.2833 -119.5333 303° West 430 495 32,000  Level Edmonton Center
Mon 06:40:12 PM 56.3500 -119.7167 303° West 430 495 32,000  Level Edmonton Center
Mon 06:41:12 PM 56.4167 -119.9000 303° West 430 495 32,000  Level Edmonton Center
Mon 06:42:12 PM 56.4833 -120.0833 303° West 430 495 32,000  Level Edmonton Center
Mon 06:43:12 PM 56.5667 -120.2667 310° West 430 495 32,000  Level Edmonton Center
Mon 06:44:12 PM 56.6167 -120.4500 296° West 430 495 32,000  Level Edmonton Center
Mon 06:45:12 PM 56.6833 -120.6333 304° West 440 506 32,000  Level Edmonton Center
Mon 06:46:12 PM 56.7500 -120.8167 304° West 440 506 32,000  Level Edmonton Center
Mon 06:47:12 PM 56.8333 -121.0167 307° West 450 518 32,000  Level Edmonton Center
Mon 06:48:12 PM 56.8833 -121.2000 297° West 450 518 32,000  Level Edmonton Center
Mon 06:49:12 PM 56.9667 -121.4000 307° West 460 529 32,000  Level Edmonton Center
Mon 06:50:12 PM 57.0333 -121.6167 300° West 460 529 32,000  Level Edmonton Center
Mon 06:51:12 PM 57.1000 -121.8167 302° West 470 541 32,000  Level Edmonton Center
Mon 06:52:12 PM 57.1667 -122.0333 300° West 470 541 32,000  Level Edmonton Center
Mon 06:53:12 PM 57.2333 -122.2333 302° West 470 541 32,000  Level Edmonton Center
Mon 06:54:12 PM 57.3167 -122.4333 308° West 470 541 32,000  Level Edmonton Center
Mon 06:55:12 PM 57.3833 -122.6167 304° West 470 541 32,000  Level Edmonton Center
Mon 06:56:12 PM 57.4500 -122.8500 298° West 470 541 32,000  Level Edmonton Center
Mon 06:57:12 PM 57.5333 -123.0500 308° West 480 552 32,000  Level Edmonton Center
Mon 06:58:12 PM 57.6000 -123.2833 298° West 480 552 32,000  Level Edmonton Center
Mon 06:59:12 PM 57.6500 -123.5167 292° West 480 552 32,000  Level Edmonton Center
Mon 07:00:12 PM 57.7333 -123.7167 308° West 470 541 32,000  Level Edmonton Center
Mon 07:01:12 PM 57.8000 -123.9500 298° West 480 552 32,000 38 Level Edmonton Center
Mon 07:03:00 PM 57.9437 -124.3215 306° West  Level FlightAware Approximate
Mon 07:10:00 PM 58.4922 -125.7949 306° West  Level FlightAware Approximate
Mon 07:11:00 PM 58.5691 -126.0091 305° West  Level FlightAware Approximate
Mon 07:12:00 PM 58.6457 -126.2242 304° West  Level FlightAware Approximate
Mon 07:13:00 PM 58.7194 -126.4458 302° West  Level FlightAware Approximate
Mon 07:14:00 PM 58.7910 -126.6682 302° West  Level FlightAware Approximate
Mon 07:15:00 PM 58.8622 -126.8915 302° West  Level FlightAware Approximate
Mon 07:16:00 PM 58.9330 -127.1157 302° West  Level FlightAware Approximate
Mon 07:17:00 PM 59.0034 -127.3408 301° West  Level FlightAware Approximate
Mon 07:18:00 PM 59.0734 -127.5669 301° West  Level FlightAware Approximate
Mon 07:19:00 PM 59.1430 -127.7939 301° West  Level FlightAware Approximate
Mon 07:20:00 PM 59.2122 -128.0217 301° West  Level FlightAware Approximate
Mon 07:21:00 PM 59.2811 -128.2505 301° West  Level FlightAware Approximate
Mon 07:22:00 PM 59.3495 -128.4803 300° West  Level FlightAware Approximate
Mon 07:23:00 PM 59.4175 -128.7110 300° West  Level FlightAware Approximate
Mon 07:24:00 PM 59.4851 -128.9425 300° West  Level FlightAware Approximate
Mon 07:25:00 PM 59.5523 -129.1750 300° West  Level FlightAware Approximate
Mon 07:26:00 PM 59.6191 -129.4085 300° West  Level FlightAware Approximate
Mon 07:27:00 PM 59.6855 -129.6429 299° West  Level FlightAware Approximate
Mon 07:28:00 PM 59.7514 -129.8782 299° West  Level FlightAware Approximate
Mon 07:29:00 PM 59.8170 -130.1144 299° West  Level FlightAware Approximate
Mon 07:30:00 PM 59.8820 -130.3515 299° West  Level FlightAware Approximate
Mon 07:31:00 PM 59.9467 -130.5896 299° West  Level FlightAware Approximate
Mon 07:32:00 PM 60.0110 -130.8286 298° West  Level FlightAware Approximate
Mon 07:33:00 PM 60.0748 -131.0685 298° West  Level FlightAware Approximate
Mon 07:34:00 PM 60.1381 -131.3094 298° West  Level FlightAware Approximate
Mon 07:35:00 PM 60.2011 -131.5512 298° West  Level FlightAware Approximate
Mon 07:36:00 PM 60.2636 -131.7939 298° West  Level FlightAware Approximate
Mon 07:37:00 PM 60.3256 -132.0376 297° West  Level FlightAware Approximate
Mon 07:38:00 PM 60.3872 -132.2821 297° West  Level FlightAware Approximate
Mon 07:39:00 PM 60.4284 -132.5408 280° West  Level FlightAware Approximate
Mon 07:40:00 PM 60.4506 -132.8123 280° West  Level FlightAware Approximate
Mon 07:41:00 PM 60.4722 -133.0841 279° West  Level FlightAware Approximate
Mon 07:42:00 PM 60.4933 -133.3563 279° West  Level FlightAware Approximate
Mon 07:43:00 PM 60.5138 -133.6288 279° West  Level FlightAware Approximate
Mon 07:44:00 PM 60.5338 -133.9017 279° West  Level FlightAware Approximate
Mon 07:45:00 PM 60.5532 -134.1749 278° West  Level FlightAware Approximate
Mon 07:46:00 PM 60.5720 -134.4484 278° West  Level FlightAware Approximate
Mon 07:47:00 PM 60.5903 -134.7222 278° West  Level FlightAware Approximate
Mon 07:48:00 PM 60.6080 -134.9964 278° West  Level FlightAware Approximate
Mon 07:49:00 PM 60.6277 -135.2701 279° West  Level FlightAware Approximate
Mon 07:50:00 PM 60.6494 -135.5434 279° West  Level FlightAware Approximate
Mon 07:51:00 PM 60.6705 -135.8170 279° West  Level FlightAware Approximate
Mon 07:52:00 PM 60.6911 -136.0910 279° West  Level FlightAware Approximate
Mon 07:53:00 PM 60.7104 -136.3570 279° West  Level FlightAware Approximate
Mon 07:53:21 PM 60.7167 -136.6000 277° West 470 541 34,000  Level Anchorage Center
Mon 07:54:00 PM 60.7293 -136.6233 278° West  Level FlightAware Approximate
Mon 07:54:22 PM 60.7333 -136.8833 277° West 510 587 34,000  Level Anchorage Center
Mon 07:55:00 PM 60.7477 -136.8899 278° West  Level FlightAware Approximate
Mon 07:55:22 PM 60.7667 -137.1667 284° West 500 575 34,000  Level Anchorage Center
Mon 07:56:00 PM 60.7655 -137.1568 278° West  Level FlightAware Approximate
Mon 07:56:22 PM 60.7833 -137.4500 277° West 490 564 34,000  Level Anchorage Center
Mon 07:57:00 PM 60.7827 -137.4240 278° West  Level FlightAware Approximate
Mon 07:57:23 PM 60.8000 -137.7167 277° West 500 575 34,000  Level Anchorage Center
Mon 07:58:00 PM 60.7983 -137.6918 277° West  Level FlightAware Approximate
Mon 07:58:23 PM 60.8167 -138.0000 277° West 490 564 34,000  Level Anchorage Center
Mon 07:59:23 PM 60.8167 -138.2833 270° West 490 564 34,000  Level Anchorage Center
Mon 08:00:23 PM 60.8333 -138.5500 277° West 490 564 34,000  Level Anchorage Center
Mon 08:01:24 PM 60.8500 -138.8333 277° West 490 564 34,000  Level Anchorage Center
Mon 08:02:24 PM 60.8667 -139.1000 277° West 490 564 34,000  Level Anchorage Center
Mon 08:03:24 PM 60.8833 -139.3833 277° West 490 564 34,000  Level Anchorage Center
Mon 08:04:25 PM 60.9000 -139.6667 277° West 490 564 34,000  Level Anchorage Center
Mon 08:05:25 PM 60.9167 -139.9333 277° West 490 564 34,000  Level Anchorage Center
Mon 08:06:25 PM 60.9167 -140.2167 270° West 490 564 34,000  Level Anchorage Center
Mon 08:07:26 PM 60.9333 -140.5000 277° West 490 564 34,000  Level Anchorage Center
Mon 08:08:26 PM 60.9500 -140.7833 277° West 490 564 34,000  Level Anchorage Center
Mon 08:09:26 PM 60.9500 -141.0500 270° West 490 564 34,000  Level Anchorage Center
Mon 08:10:27 PM 60.9667 -141.3333 277° West 490 564 34,000  Level Anchorage Center
Mon 08:11:27 PM 60.9667 -141.6167 270° West 490 564 34,000  Level Anchorage Center
Mon 08:12:27 PM 60.9833 -141.9500 276° West 490 564 34,000  Level Anchorage Center
Mon 08:13:28 PM 60.9833 -142.2333 270° West 490 564 34,000  Level Anchorage Center
Mon 08:14:28 PM 61.0000 -142.5167 277° West 480 552 34,000  Level Anchorage Center
Mon 08:15:28 PM 61.0000 -142.8000 270° West 490 564 34,000  Level Anchorage Center
Mon 08:16:29 PM 61.0167 -143.0833 277° West 490 564 34,000  Level Anchorage Center
Mon 08:17:29 PM 61.0167 -143.3667 270° West 490 564 34,000  Level Anchorage Center
Mon 08:18:30 PM 61.0167 -143.6500 270° West 500 575 34,000  Level Anchorage Center
Mon 08:19:30 PM 61.0333 -143.9333 277° West 510 587 34,000  Level Anchorage Center
Mon 08:20:30 PM 61.0333 -144.2333 270° West 510 587 34,000  Level Anchorage Center
Mon 08:21:30 PM 61.0333 -144.5167 270° West 500 575 34,000  Level Anchorage Center
Mon 08:22:31 PM 61.0333 -144.8167 270° West 510 587 34,000  Level Anchorage Center
Mon 08:23:31 PM 61.0333 -145.1167 270° West 530 610 34,000  Level Anchorage Center
Mon 08:24:31 PM 61.0333 -145.4167 270° West 530 610 34,000  Level Anchorage Center
Mon 08:29:59 PM 61.0540 -147.1080 270° West 528 608 34,000  Level FlightAware ADS-B
Mon 08:30:38 PM 61.0540 -147.3040 270° West 528 608 34,000  Level FlightAware ADS-B
Mon 08:31:21 PM 61.0540 -147.5200 270° West 528 608 34,000  Level FlightAware ADS-B
Mon 08:31:57 PM 61.0530 -147.7060 269° West 528 608 34,000  Level FlightAware ADS-B
Mon 08:32:41 PM 61.0520 -147.9220 270° West 527 606 34,000  Level FlightAware ADS-B
Mon 08:33:17 PM 61.0510 -148.1020 269° West 525 604 34,000  Level FlightAware ADS-B
Mon 08:34:05 PM 61.0490 -148.3460 269° West 523 602 34,000  Level FlightAware ADS-B
Mon 08:34:45 PM 61.0470 -148.5400 269° West 521 600 34,000  Level FlightAware ADS-B
Mon 08:35:29 PM 61.0440 -148.7630 269° West 520 598 34,000  Level FlightAware ADS-B
Mon 08:36:09 PM 61.0420 -148.9600 269° West 518 596 34,000  Level FlightAware ADS-B
Mon 08:36:54 PM 61.0380 -149.1770 268° West 517 595 34,000  Level FlightAware ADS-B
Mon 08:37:34 PM 61.0350 -149.3780 268° West 517 595 34,000  Level FlightAware ADS-B
Mon 08:38:14 PM 61.0320 -149.5750 268° West 517 595 34,000  Level FlightAware ADS-B
Mon 08:38:58 PM 61.0280 -149.7920 268° West 516 594 34,000  Level FlightAware ADS-B
Mon 08:39:39 PM 61.0240 -149.9880 268° West 516 594 34,000  Level FlightAware ADS-B
Mon 08:40:31 PM 61.0180 -150.2430 267° West 516 594 34,000  Level FlightAware ADS-B
Mon 08:41:12 PM 61.0130 -150.4440 267° West 516 594 34,000  Level FlightAware ADS-B
Mon 08:41:52 PM 61.0080 -150.6400 267° West 516 594 34,000  Level FlightAware ADS-B
Mon 08:42:36 PM 61.0030 -150.8560 267° West 516 594 34,000  Level FlightAware ADS-B
Mon 08:43:16 PM 60.9970 -151.0570 267° West 516 594 34,000  Level FlightAware ADS-B
Mon 08:44:00 PM 60.9900 -151.2720 266° West 516 594 34,000  Level FlightAware ADS-B
Mon 08:44:41 PM 60.9840 -151.4690 266° West 517 595 34,000  Level FlightAware ADS-B
Mon 08:45:20 PM 60.9780 -151.6590 266° West 517 595 34,000  Level FlightAware ADS-B
Mon 08:45:56 PM 60.9720 -151.8400 266° West 516 594 34,000  Level FlightAware ADS-B
Mon 08:46:42 PM 60.9640 -152.0600 266° West 514 592 34,000  Level FlightAware ADS-B
Mon 08:47:18 PM 60.9570 -152.2400 265° West 512 589 34,000  Level FlightAware ADS-B
Mon 08:47:58 PM 60.9500 -152.4290 266° West 510 587 34,000  Level FlightAware ADS-B
Mon 08:48:38 PM 60.9420 -152.6270 265° West 509 586 34,000  Level FlightAware ADS-B
Mon 08:49:18 PM 60.9340 -152.8190 265° West 508 585 34,000  Level FlightAware ADS-B
Mon 08:50:02 PM 60.9250 -153.0210 265° West 509 586 34,000  Level FlightAware ADS-B
Mon 08:50:46 PM 60.9150 -153.2420 265° West 509 586 34,000  Level FlightAware ADS-B
Mon 08:51:26 PM 60.9060 -153.4340 265° West 509 586 34,000  Level FlightAware ADS-B
Mon 08:52:10 PM 60.8960 -153.6450 265° West 508 585 34,000  Level FlightAware ADS-B
Mon 08:52:50 PM 60.8870 -153.8360 265° West 507 583 34,000  Level FlightAware ADS-B
Mon 08:53:34 PM 60.8760 -154.0460 264° West 506 582 34,000  Level FlightAware ADS-B
Mon 08:54:15 PM 60.8660 -154.2370 264° West 506 582 34,000  Level FlightAware ADS-B
Mon 08:54:52 PM 60.8560 -154.4180 264° West 505 581 34,000  Level FlightAware ADS-B
Mon 08:55:33 PM 60.8460 -154.5840 263° West 505 581 34,000  Level FlightAware ADS-B
Mon 08:56:21 PM 60.8350 -154.7780 263° West 505 581 34,000  Level FlightAware ADS-B
Mon 08:56:57 PM 60.8260 -154.9240 263° West 505 581 34,000  Level FlightAware ADS-B
Mon 08:57:33 PM 60.8170 -155.0690 263° West 505 581 34,000  Level FlightAware ADS-B
Mon 08:58:21 PM 60.8060 -155.2630 263° West 505 581 34,000  Level FlightAware ADS-B
Mon 08:58:57 PM 60.7970 -155.4090 263° West 505 581 34,000  Level FlightAware ADS-B
Mon 08:59:45 PM 60.7850 -155.6030 263° West 505 581 34,000  Level FlightAware ADS-B
Mon 09:00:21 PM 60.7770 -155.7480 264° West 505 581 34,000  Level FlightAware ADS-B
Mon 09:01:11 PM 60.7640 -155.9500 263° West 505 581 34,000  Level FlightAware ADS-B
Mon 09:01:35 PM 60.7590 -156.0470 264° West 505 581 34,000  Level FlightAware ADS-B
Mon 09:02:23 PM 60.7470 -156.2400 263° West 505 581 34,000  Level FlightAware ADS-B
Mon 09:03:36 PM 60.7290 -156.5350 263° West 505 581 34,000  Level FlightAware ADS-B
Mon 09:04:12 PM 60.7210 -156.6800 264° West 505 581 34,000 882 Level FlightAware ADS-B
Mon 09:04:44 PM 60.6667 -157.1667 264° West 490 564 35,000 645 Climbing Anchorage Center
Mon 09:05:45 PM 60.6500 -157.4333 263° West 490 564 35,000  Level Anchorage Center
Mon 09:06:45 PM 60.6333 -157.7167 263° West 480 552 35,000  Level Anchorage Center
Mon 09:07:45 PM 60.6000 -158.0000 257° West 490 564 35,000  Level Anchorage Center
Mon 09:08:46 PM 60.5833 -158.2667 263° West 490 564 35,000  Level Anchorage Center
Mon 09:09:46 PM 60.5500 -158.5500 257° West 490 564 35,000  Level Anchorage Center
Mon 09:10:46 PM 60.5333 -158.8167 263° West 490 564 35,000  Level Anchorage Center
Mon 09:11:47 PM 60.5000 -159.1000 257° West 490 564 35,000  Level Anchorage Center
Mon 09:14:00 PM 60.4535 -159.6041 260° West  Level FlightAware Approximate
Mon 09:14:05 PM 60.4500 -159.7000 260° West 490 564 35,000  Level Anchorage Center
Mon 09:15:48 PM 60.4000 -160.1667 259° West 480 552 35,000  Level Anchorage Center
Mon 09:16:00 PM 60.4009 -160.2023 259° West  Level FlightAware Approximate
Mon 09:16:48 PM 60.3833 -160.4333 263° West 490 564 35,000  Level Anchorage Center
Mon 09:17:48 PM 60.3500 -160.7000 256° West 490 564 35,000  Level Anchorage Center
Mon 09:18:49 PM 60.3167 -160.9667 256° West 480 552 35,000  Level Anchorage Center
Mon 09:19:49 PM 60.2833 -161.2333 256° West 480 552 35,000  Level Anchorage Center
Mon 09:20:49 PM 60.2667 -161.5000 263° West 480 552 35,000  Level Anchorage Center
Mon 09:21:50 PM 60.2333 -161.8167 258° West 490 564 35,000  Level Anchorage Center
Mon 09:22:50 PM 60.2000 -162.0833 256° West 480 552 35,000  Level Anchorage Center
Mon 09:23:50 PM 60.1667 -162.3500 256° West 480 552 35,000  Level Anchorage Center
Mon 09:24:51 PM 60.1333 -162.6167 256° West 480 552 35,000  Level Anchorage Center
Mon 09:25:51 PM 60.1000 -162.8667 255° West 480 552 35,000  Level Anchorage Center
Mon 09:26:52 PM 60.0667 -163.1333 256° West 480 552 35,000  Level Anchorage Center
Mon 09:27:52 PM 60.0333 -163.4000 256° West 480 552 35,000  Level Anchorage Center
Mon 09:28:52 PM 60.0000 -163.6500 255° West 470 541 35,000  Level Anchorage Center
Mon 09:29:53 PM 59.9667 -163.9167 256° West 480 552 35,000  Level Anchorage Center
Mon 09:30:53 PM 59.9333 -164.1667 255° West 480 552 35,000  Level Anchorage Center
Mon 09:31:53 PM 59.9000 -164.4167 255° West 470 541 35,000  Level Anchorage Center
Mon 09:32:53 PM 59.8667 -164.6833 256° West 470 541 35,000  Level Anchorage Center
Mon 09:33:54 PM 59.8333 -164.9333 255° West 470 541 35,000  Level Anchorage Center
Mon 09:34:54 PM 59.8000 -165.1833 255° West 480 552 35,000  Level Anchorage Center
Mon 09:35:54 PM 59.7667 -165.4667 257° West 480 552 35,000  Level Anchorage Center
Mon 09:36:55 PM 59.7167 -165.7167 248° West 470 541 35,000  Level Anchorage Center
Mon 09:37:55 PM 59.6833 -165.9667 255° West 480 552 35,000  Level Anchorage Center
Mon 09:38:55 PM 59.6500 -166.2167 255° West 470 541 35,000  Level Anchorage Center
Mon 09:39:56 PM 59.6167 -166.4833 256° West 480 552 35,000  Level Anchorage Center
Mon 09:40:56 PM 59.5667 -166.7333 249° West 470 541 35,000  Level Anchorage Center
Mon 09:42:07 PM 59.5167 -167.0333 252° West 470 541 35,000  Level Anchorage Center
Mon 09:43:07 PM 59.4833 -167.2833 255° West 480 552 35,000  Level Anchorage Center
Mon 09:44:07 PM 59.4333 -167.5500 250° West 490 564 35,000  Level Anchorage Center
Mon 09:45:07 PM 59.4000 -167.7833 254° West 470 541 35,000  Level Anchorage Center
Mon 09:46:07 PM 59.3500 -168.0333 249° West 470 541 35,000  Level Anchorage Center
Mon 09:47:07 PM 59.3167 -168.2500 253° West 470 541 35,000  Level Anchorage Center
Mon 09:48:07 PM 59.2833 -168.5000 255° West 470 541 35,000  Level Anchorage Center
Mon 09:49:07 PM 59.2333 -168.7500 249° West 470 541 35,000  Level Anchorage Center
Mon 09:50:07 PM 59.1833 -169.0000 249° West 480 552 35,000  Level Anchorage Center
Mon 09:51:07 PM 59.1500 -169.2500 256° West 470 541 35,000  Level Anchorage Center
Mon 09:52:08 PM 59.1000 -169.4833 247° West 470 541 35,000  Level Anchorage Center
Mon 09:53:08 PM 59.0667 -169.7333 256° West 480 552 35,000  Level Anchorage Center
Mon 09:54:07 PM 59.0167 -169.9833 249° West 470 541 35,000  Level Anchorage Center
Mon 09:55:08 PM 58.9667 -170.2167 248° West 480 552 35,000  Level Anchorage Center
Mon 09:56:07 PM 58.9167 -170.4667 249° West 470 541 35,000  Level Anchorage Center
Mon 09:57:08 PM 58.8833 -170.7000 255° West 480 552 35,000  Level Anchorage Center
Mon 09:58:07 PM 58.8333 -170.9500 249° West 480 552 35,000  Level Anchorage Center
Mon 09:59:08 PM 58.7833 -171.1833 248° West 470 541 35,000  Level Anchorage Center
Mon 10:00:08 PM 58.7333 -171.4167 248° West 470 541 35,000  Level Anchorage Center
Mon 10:01:08 PM 58.6833 -171.6500 248° West 470 541 35,000  Level Anchorage Center
Mon 10:02:08 PM 58.6333 -171.8833 248° West 460 529 35,000  Level Anchorage Center
Mon 10:03:08 PM 58.5833 -172.1167 248° West 460 529 35,000  Level Anchorage Center
Mon 10:04:08 PM 58.5500 -172.3500 255° West 450 518 35,000  Level Anchorage Center
Mon 10:05:08 PM 58.5000 -172.5667 246° West 450 518 35,000  Level Anchorage Center
Mon 10:06:08 PM 58.4500 -172.7833 246° West 450 518 35,000  Level Anchorage Center
Mon 10:07:08 PM 58.4000 -173.0167 248° West 440 506 35,000  Level Anchorage Center
Mon 10:08:08 PM 58.3500 -173.2333 246° West 440 506 35,000  Level Anchorage Center
Mon 10:09:09 PM 58.3000 -173.4333 245° Southwest 440 506 35,000  Level Anchorage Center
Mon 10:10:09 PM 58.2500 -173.6500 246° West 440 506 35,000  Level Anchorage Center
Mon 10:11:09 PM 58.2167 -173.8833 255° West 440 506 35,000  Level Anchorage Center
Mon 10:12:08 PM 58.1667 -174.0833 245° Southwest 440 506 35,000  Level Anchorage Center
Mon 10:13:09 PM 58.1167 -174.3000 246° West 440 506 35,000  Level Anchorage Center
Mon 10:14:09 PM 58.0667 -174.5167 247° West 440 506 35,000  Level Anchorage Center
Mon 10:15:09 PM 58.0167 -174.7333 247° West 430 495 35,000  Level Anchorage Center
Mon 10:16:09 PM 57.9667 -174.9333 245° Southwest 440 506 35,000  Level Anchorage Center
Mon 10:17:09 PM 57.9167 -175.1500 247° West 440 506 35,000  Level Anchorage Center
Mon 10:18:09 PM 57.8667 -175.3667 247° West 440 506 35,000  Level Anchorage Center
Mon 10:19:09 PM 57.8167 -175.5667 245° Southwest 430 495 35,000  Level Anchorage Center
Mon 10:20:09 PM 57.7667 -175.7833 247° West 440 506 35,000  Level Anchorage Center
Mon 10:21:09 PM 57.7167 -176.0000 247° West 440 506 35,000  Level Anchorage Center
Mon 10:22:09 PM 57.6667 -176.2000 245° Southwest 440 506 35,000  Level Anchorage Center
Mon 10:23:09 PM 57.6333 -176.3667 250° West 440 506 35,000  Level Anchorage Center
Mon 10:25:00 PM 57.5357 -176.7900 247° West  Level FlightAware Approximate
Mon 10:25:48 PM 57.5333 -176.8000 245° Southwest 453 521 35,000  Level Anchorage Center
Mon 10:29:06 PM 57.3833 -177.3833 244° Southwest 451 519 35,000  Level Anchorage Center
Mon 10:32:00 PM 57.1463 -178.2929 244° Southwest 453 521 35,000  Level FlightAware Transoceanic
Mon 10:33:00 PM 57.0896 -178.5036 244° Southwest 453 521 35,000  Level FlightAware Transoceanic
Mon 10:34:00 PM 57.0325 -178.7136 243° Southwest 453 521 35,000  Level FlightAware Transoceanic
Mon 10:35:00 PM 56.9875 -178.8722 243° Southwest 451 519 35,000  Level FlightAware Transoceanic
Mon 10:36:00 PM 56.9295 -179.0823 243° Southwest 451 519 35,000  Level FlightAware Transoceanic
Mon 10:37:00 PM 56.8712 -179.2917 243° Southwest 451 519 35,000  Level FlightAware Transoceanic
Mon 10:38:00 PM 56.8125 -179.5005 243° Southwest 451 519 35,000  Level FlightAware Transoceanic
Mon 10:39:00 PM 56.7534 -179.7086 243° Southwest 451 519 35,000  Level FlightAware Transoceanic
Mon 10:40:00 PM 56.6941 -179.9161 242° Southwest 451 519 35,000  Level FlightAware Transoceanic
Mon 10:41:00 PM 56.6344 179.8771 242° Southwest 451 519 35,000  Level FlightAware Transoceanic
Mon 10:42:00 PM 56.5743 179.6709 242° Southwest 451 519 35,000  Level FlightAware Transoceanic
Mon 10:43:00 PM 56.5139 179.4655 242° Southwest 451 519 35,000  Level FlightAware Transoceanic
Mon 10:44:00 PM 56.4532 179.2606 242° Southwest 451 519 35,000  Level FlightAware Transoceanic
Mon 10:45:00 PM 56.3921 179.0564 242° Southwest 451 519 35,000  Level FlightAware Transoceanic
Mon 10:46:00 PM 56.3307 178.8529 241° Southwest 451 519 35,000  Level FlightAware Transoceanic
Mon 10:47:00 PM 56.2690 178.6500 241° Southwest 451 519 35,000  Level FlightAware Transoceanic
Mon 10:48:00 PM 56.2069 178.4478 241° Southwest 451 519 35,000  Level FlightAware Transoceanic
Mon 10:49:00 PM 56.1445 178.2462 241° Southwest 451 519 35,000  Level FlightAware Transoceanic
Mon 10:50:00 PM 56.0818 178.0453 241° Southwest 451 519 35,000  Level FlightAware Transoceanic
Mon 10:50:42 PM 56.0667 177.9833 241° Southwest 458 527 35,000  Level Anchorage Center
Mon 10:51:00 PM 56.0187 177.8450 241° Southwest 451 519 35,000  Level FlightAware Transoceanic
Mon 10:52:00 PM 55.9553 177.6454 240° Southwest 451 519 35,000  Level FlightAware Transoceanic
Mon 10:53:00 PM 55.8916 177.4465 240° Southwest 451 519 35,000  Level FlightAware Transoceanic
Mon 10:54:00 PM 55.8276 177.2482 240° Southwest 451 519 35,000  Level FlightAware Transoceanic
Mon 10:54:25 PM 55.8333 177.2500 240° Southwest 457 526 35,000  Level Anchorage Center
Mon 10:55:00 PM 55.7633 177.0505 240° Southwest 451 519 35,000  Level FlightAware Transoceanic
Mon 10:56:00 PM 55.7505 177.0004 240° Southwest 458 527 35,000  Level FlightAware Transoceanic
Mon 10:56:02 PM 55.7167 176.9333 239° Southwest 450 518 35,000  Level Anchorage Center
Mon 10:57:00 PM 55.6863 176.8057 240° Southwest 458 527 35,000  Level FlightAware Transoceanic
Mon 10:57:01 PM 55.6667 176.7667 242° Southwest 460 529 35,000  Level Anchorage Center
Mon 10:58:00 PM 55.6218 176.6117 239° Southwest 458 527 35,000  Level FlightAware Transoceanic
Mon 10:58:01 PM 55.6000 176.5333 243° Southwest 460 529 35,000  Level Anchorage Center
Mon 10:59:00 PM 55.5571 176.4183 239° Southwest 458 527 35,000  Level FlightAware Transoceanic
Mon 10:59:01 PM 55.5333 176.3833 232° Southwest 460 529 35,000  Level Anchorage Center
Mon 11:00:00 PM 55.4571 176.1199 239° Southwest 457 526 35,000  Level FlightAware Transoceanic
Mon 11:00:01 PM 55.4667 176.1667 242° Southwest 450 518 35,000  Level Anchorage Center
Mon 11:01:00 PM 55.3934 175.9337 239° Southwest 457 526 35,000  Level FlightAware Transoceanic
Mon 11:01:02 PM 55.4167 176.0000 242° Southwest 460 529 35,000  Level Anchorage Center
Mon 11:02:01 PM 55.3333 175.7833 236° Southwest 460 529 35,000  Level Anchorage Center
Mon 11:03:02 PM 55.2667 175.5667 242° Southwest 460 529 35,000  Level Anchorage Center
Mon 11:04:02 PM 55.2000 175.4000 235° Southwest 460 529 35,000  Level Anchorage Center
Mon 11:05:02 PM 55.1333 175.2000 240° Southwest 460 529 35,000  Level Anchorage Center
Mon 11:06:02 PM 55.0833 175.0333 242° Southwest 460 529 35,000  Level Anchorage Center
Mon 11:07:02 PM 55.0000 174.8333 234° Southwest 460 529 35,000  Level Anchorage Center
Mon 11:08:02 PM 54.9333 174.6667 235° Southwest 460 529 35,000  Level Anchorage Center
Mon 11:09:02 PM 54.8667 174.4500 242° Southwest 460 529 35,000  Level Anchorage Center
Mon 11:10:02 PM 54.8000 174.2833 235° Southwest 460 529 35,000  Level Anchorage Center
Mon 11:11:02 PM 54.7333 174.0833 240° Southwest 470 541 35,000  Level Anchorage Center
Mon 11:12:02 PM 54.6500 173.8833 234° Southwest 460 529 35,000  Level Anchorage Center
Mon 11:13:02 PM 54.6000 173.7167 243° Southwest 470 541 35,000  Level Anchorage Center
Mon 11:14:02 PM 54.5167 173.5167 234° Southwest 470 541 35,000  Level Anchorage Center
Mon 11:15:03 PM 54.4500 173.3500 236° Southwest 470 541 35,000  Level Anchorage Center
Mon 11:16:03 PM 54.3833 173.1500 240° Southwest 470 541 35,000  Level Anchorage Center
Mon 11:17:02 PM 54.3167 172.9833 236° Southwest 470 541 35,000  Level Anchorage Center
Mon 11:18:03 PM 54.2333 172.7833 235° Southwest 470 541 35,000  Level Anchorage Center
Mon 11:19:03 PM 54.1500 172.5667 237° Southwest 490 564 35,000  Level Anchorage Center
Mon 11:20:03 PM 54.0833 172.4167 233° Southwest 460 529 35,000  Level Anchorage Center
Mon 11:21:03 PM 54.0000 172.2167 235° Southwest 470 541 35,000  Level Anchorage Center
Mon 11:22:03 PM 53.9333 172.0500 236° Southwest 490 564 35,000  Level Anchorage Center
Mon 11:23:03 PM 53.8500 171.8500 235° Southwest 480 552 35,000  Level Anchorage Center
Mon 11:24:03 PM 53.7833 171.6833 236° Southwest 490 564 35,000  Level Anchorage Center
Mon 11:25:03 PM 53.7000 171.4833 235° Southwest 480 552 35,000  Level Anchorage Center
Mon 11:26:03 PM 53.6167 171.2833 235° Southwest 490 564 35,000  Level Anchorage Center
Mon 11:27:03 PM 53.5500 171.1333 233° Southwest 470 541 35,000  Level Anchorage Center
Mon 11:28:03 PM 53.4667 170.9333 235° Southwest 490 564 35,000  Level Anchorage Center
Mon 11:29:03 PM 53.4000 170.7667 236° Southwest 480 552 35,000  Level Anchorage Center
Mon 11:30:03 PM 53.3000 170.5667 230° Southwest 490 564 35,000  Level Anchorage Center
Mon 11:31:03 PM 53.2333 170.4167 233° Southwest 500 575 35,000  Level Anchorage Center
Mon 11:32:04 PM 53.1500 170.2167 235° Southwest 490 564 35,000  Level Anchorage Center
Mon 11:33:04 PM 53.0500 170.0167 230° Southwest 500 575 35,000  Level Anchorage Center
Mon 11:34:03 PM 52.9833 169.8500 236° Southwest 500 575 35,000  Level Anchorage Center
Mon 11:35:04 PM 52.9167 169.6333 243° Southwest 510 587 35,000  Level Anchorage Center
Mon 11:36:04 PM 52.8500 169.4667 237° Southwest 500 575 35,000  Level Anchorage Center
Mon 11:37:04 PM 52.7833 169.2333 245° Southwest 510 587 35,000  Level Anchorage Center
Mon 11:38:04 PM 52.7167 169.0667 237° Southwest 530 610 35,000  Level Anchorage Center
Mon 11:39:04 PM 52.6500 168.8333 245° Southwest 500 575 35,000  Level Anchorage Center
Mon 11:40:04 PM 52.5833 168.6667 237° Southwest 520 598 35,000  Level Anchorage Center
Mon 11:41:04 PM 52.5000 168.4500 238° Southwest 520 598 35,000  Level Anchorage Center
Mon 11:42:04 PM 52.4333 168.2333 243° Southwest 520 598 35,000  Level Anchorage Center
Mon 11:43:04 PM 52.3667 168.0500 239° Southwest 520 598 35,000  Level Anchorage Center
Mon 11:44:04 PM 52.2833 167.8333 238° Southwest 510 587 35,000  Level Anchorage Center
Mon 11:47:00 PM 52.1533 167.4774 239° Southwest  Level FlightAware Approximate
Mon 11:48:52 PM 52.0333 167.1167 239° Southwest 507 583 35,000  Level Anchorage Center
Mon 11:54:00 PM 51.6736 166.2060 239° Southwest  Level FlightAware Approximate
Mon 11:55:00 PM 51.5215 165.7744 238° Southwest 507 583 35,000  Level FlightAware Transoceanic
Mon 11:56:00 PM 51.4471 165.5851 238° Southwest 507 583 35,000  Level FlightAware Transoceanic
Mon 11:56:00 PM 51.4333 165.5500 238° Southwest 506 582 35,000  Level Anchorage Center
Mon 11:57:00 PM 51.3725 165.3964 238° Southwest 507 583 35,000  Level FlightAware Transoceanic
Mon 11:58:00 PM 51.2975 165.2084 237° Southwest 507 583 35,000  Level FlightAware Transoceanic
Mon 11:59:00 PM 51.2222 165.0210 237° Southwest 507 583 35,000  Level FlightAware Transoceanic
Tue 12:00:00 AM 51.1467 164.8341 237° Southwest 507 583 35,000  Level FlightAware Transoceanic
Tue 12:01:00 AM 51.0708 164.6479 237° Southwest 507 583 35,000  Level FlightAware Transoceanic
Tue 12:02:00 AM 50.9833 164.4346 237° Southwest 506 582 35,000  Level FlightAware Transoceanic
Tue 12:02:24 AM 50.9500 164.3833 237° Southwest 502 578 35,000  Level Anchorage Center
Tue 12:03:00 AM 50.9072 164.2508 237° Southwest 506 582 35,000  Level FlightAware Transoceanic
Tue 12:04:00 AM 50.8309 164.0676 236° Southwest 506 582 35,000  Level FlightAware Transoceanic
Tue 12:05:00 AM 50.7543 163.8850 236° Southwest 506 582 35,000  Level FlightAware Transoceanic
Tue 12:06:00 AM 50.6774 163.7030 236° Southwest 506 582 35,000  Level FlightAware Transoceanic
Tue 12:07:00 AM 50.6002 163.5216 236° Southwest 506 582 35,000  Level FlightAware Transoceanic
Tue 12:08:00 AM 50.4971 163.3029 236° Southwest 502 578 35,000  Level FlightAware Transoceanic
Tue 12:09:00 AM 50.4207 163.1248 236° Southwest 502 578 35,000  Level FlightAware Transoceanic
Tue 12:10:00 AM 50.3440 162.9473 236° Southwest 502 578 35,000  Level FlightAware Transoceanic
Tue 12:11:00 AM 50.2670 162.7704 236° Southwest 502 578 35,000  Level FlightAware Transoceanic
Tue 12:12:00 AM 50.1898 162.5941 236° Southwest 502 578 35,000  Level FlightAware Transoceanic
Tue 12:12:52 AM 50.1333 162.4667 235° Southwest 502 578 35,000  Level Anchorage Center
Tue 12:13:00 AM 50.1123 162.4183 235° Southwest 502 578 35,000  Level FlightAware Transoceanic
Tue 12:14:00 AM 50.0345 162.2431 235° Southwest 502 578 35,000  Level FlightAware Transoceanic
Tue 12:14:33 AM 50.0167 162.1833 235° Southwest 504 580 35,000  Level Anchorage Center
Tue 12:15:00 AM 49.9564 162.0685 235° Southwest 502 578 35,000  Level FlightAware Transoceanic
Tue 12:16:00 AM 49.8781 161.8944 235° Southwest 502 578 35,000  Level FlightAware Transoceanic
Tue 12:17:00 AM 49.7996 161.7209 235° Southwest 502 578 35,000  Level FlightAware Transoceanic
Tue 12:18:00 AM 49.7207 161.5480 235° Southwest 502 578 35,000  Level FlightAware Transoceanic
Tue 12:19:00 AM 49.6540 161.4027 235° Southwest 502 578 35,000  Level FlightAware Transoceanic
Tue 12:20:00 AM 49.5525 161.1721 234° Southwest 504 580 35,000  Level FlightAware Transoceanic
Tue 12:21:00 AM 49.4743 161.0055 234° Southwest 504 580 35,000  Level FlightAware Transoceanic
Tue 12:21:08 AM 49.4833 161.0333 234° Southwest 497 572 35,000  Level Anchorage Center
Tue 12:22:00 AM 49.3958 160.8394 234° Southwest 504 580 35,000  Level FlightAware Transoceanic
Tue 12:23:00 AM 49.3171 160.6738 234° Southwest 504 580 35,000  Level FlightAware Transoceanic
Tue 12:24:00 AM 49.2382 160.5087 234° Southwest 504 580 35,000  Level FlightAware Transoceanic
Tue 12:25:00 AM 49.1590 160.3442 234° Southwest 504 580 35,000  Level FlightAware Transoceanic
Tue 12:26:00 AM 49.0796 160.1801 233° Southwest 504 580 35,000  Level FlightAware Transoceanic
Tue 12:27:00 AM 49.0000 160.0167 233° Southwest 497 572 35,000  Level FlightAware Transoceanic
Tue 12:28:00 AM 48.9177 159.8489 233° Southwest 497 572 35,000  Level FlightAware Transoceanic
Tue 12:29:00 AM 48.8352 159.6816 233° Southwest 497 572 35,000  Level FlightAware Transoceanic
Tue 12:30:00 AM 48.7524 159.5149 233° Southwest 497 572 35,000  Level FlightAware Transoceanic
Tue 12:31:00 AM 48.6694 159.3487 233° Southwest 497 572 35,000  Level FlightAware Transoceanic
Tue 12:32:00 AM 48.5862 159.1831 233° Southwest 497 572 35,000  Level FlightAware Transoceanic
Tue 12:33:00 AM 48.5027 159.0181 233° Southwest 497 572 35,000  Level FlightAware Transoceanic
Tue 12:34:00 AM 48.4189 158.8535 232° Southwest 497 572 35,000  Level FlightAware Transoceanic
Tue 12:35:00 AM 48.3350 158.6896 232° Southwest 497 572 35,000  Level FlightAware Transoceanic
Tue 12:36:00 AM 48.2508 158.5261 232° Southwest 497 572 35,000  Level FlightAware Transoceanic
Tue 12:37:00 AM 48.1664 158.3632 232° Southwest 497 572 35,000  Level FlightAware Transoceanic
Tue 12:38:00 AM 48.0817 158.2009 232° Southwest 497 572 35,000  Level FlightAware Transoceanic
Tue 12:39:00 AM 47.9968 158.0390 232° Southwest 497 572 35,000  Level FlightAware Transoceanic
Tue 12:40:00 AM 47.9118 157.8777 232° Southwest 497 572 35,000  Level FlightAware Transoceanic
Tue 12:41:00 AM 47.8264 157.7170 232° Southwest 497 572 35,000  Level FlightAware Transoceanic
Tue 12:42:00 AM 47.7409 157.5567 231° Southwest 497 572 35,000  Level FlightAware Transoceanic
Tue 12:43:00 AM 47.6551 157.3970 231° Southwest 497 572 35,000  Level FlightAware Transoceanic
Tue 12:44:00 AM 47.5691 157.2378 231° Southwest 497 572 35,000  Level FlightAware Transoceanic
Tue 12:45:00 AM 47.4829 157.0791 231° Southwest 497 572 35,000  Level FlightAware Transoceanic
Tue 12:46:00 AM 47.3965 156.9210 231° Southwest 497 572 35,000  Level FlightAware Transoceanic
Tue 12:47:00 AM 47.3098 156.7634 231° Southwest 497 572 35,000  Level FlightAware Transoceanic
Tue 12:48:00 AM 47.2229 156.6063 231° Southwest 497 572 35,000  Level FlightAware Transoceanic
Tue 12:49:00 AM 47.1359 156.4497 231° Southwest 497 572 35,000  Level FlightAware Transoceanic
Tue 12:50:00 AM 47.0486 156.2936 231° Southwest 497 572 35,000  Level FlightAware Transoceanic
Tue 12:51:00 AM 46.9611 156.1380 230° Southwest 497 572 35,000  Level FlightAware Transoceanic
Tue 12:52:00 AM 46.8733 155.9830 230° Southwest 497 572 35,000  Level FlightAware Transoceanic
Tue 12:53:00 AM 46.7854 155.8284 230° Southwest 497 572 35,000  Level FlightAware Transoceanic
Tue 12:54:00 AM 46.6973 155.6743 230° Southwest 497 572 35,000  Level FlightAware Transoceanic
Tue 12:55:00 AM 46.6090 155.5208 230° Southwest 497 572 35,000  Level FlightAware Transoceanic
Tue 12:56:00 AM 46.5204 155.3678 230° Southwest 497 572 35,000  Level FlightAware Transoceanic
Tue 12:57:00 AM 46.4317 155.2152 230° Southwest 497 572 35,000  Level FlightAware Transoceanic
Tue 12:58:00 AM 46.3427 155.0631 230° Southwest 497 572 35,000  Level FlightAware Transoceanic
Tue 12:59:00 AM 46.2536 154.9116 230° Southwest 497 572 35,000  Level FlightAware Transoceanic
Tue 01:00:00 AM 46.1642 154.7605 229° Southwest 497 572 35,000  Level FlightAware Transoceanic
Tue 01:01:00 AM 46.0747 154.6099 229° Southwest 497 572 35,000  Level FlightAware Transoceanic
Tue 01:02:00 AM 45.9850 154.4599 229° Southwest 497 572 35,000  Level FlightAware Transoceanic
Tue 01:03:00 AM 45.8950 154.3103 229° Southwest 497 572 35,000  Level FlightAware Transoceanic
Tue 01:04:00 AM 45.8049 154.1611 229° Southwest 497 572 35,000  Level FlightAware Transoceanic
Tue 01:05:00 AM 45.7146 154.0125 229° Southwest 497 572 35,000  Level FlightAware Transoceanic
Tue 01:06:00 AM 45.6240 153.8643 229° Southwest 497 572 35,000 30 Level FlightAware Transoceanic
Tue 01:07:00 AM 45.5293 153.7340 224° Southwest  Level FlightAware Approximate
Tue 01:08:00 AM 45.4344 153.6042 224° Southwest  Level FlightAware Approximate
Tue 01:09:00 AM 45.4453 153.6001 229° Southwest  Level FlightAware Approximate
Tue 01:10:00 AM 45.3587 153.4592 229° Southwest  Level FlightAware Approximate
Tue 01:11:00 AM 45.2719 153.3188 229° Southwest  Level FlightAware Approximate
Tue 01:12:00 AM 45.1849 153.1787 229° Southwest  Level FlightAware Approximate
Tue 01:13:00 AM 45.0978 153.0391 229° Southwest  Level FlightAware Approximate
Tue 01:14:00 AM 45.0104 152.8999 228° Southwest  Level FlightAware Approximate
Tue 01:15:00 AM 44.9219 152.7625 228° Southwest  Level FlightAware Approximate
Tue 01:16:00 AM 44.8331 152.6257 228° Southwest  Level FlightAware Approximate
Tue 01:17:00 AM 44.7440 152.4893 227° Southwest  Level FlightAware Approximate
Tue 01:18:00 AM 44.6549 152.3534 227° Southwest  Level FlightAware Approximate
Tue 01:19:00 AM 44.5659 152.2183 227° Southwest  Level FlightAware Approximate
Tue 01:20:00 AM 44.4768 152.0837 227° Southwest  Level FlightAware Approximate
Tue 01:21:00 AM 44.3875 151.9495 227° Southwest  Level FlightAware Approximate
Tue 01:22:00 AM 44.2980 151.8157 227° Southwest  Level FlightAware Approximate
Tue 01:23:00 AM 44.2084 151.6824 227° Southwest  Level FlightAware Approximate
Tue 01:24:00 AM 44.1186 151.5494 227° Southwest  Level FlightAware Approximate
Tue 01:25:00 AM 44.0287 151.4168 227° Southwest  Level FlightAware Approximate
Tue 01:26:00 AM 43.9386 151.2847 227° Southwest  Level FlightAware Approximate
Tue 01:27:00 AM 43.8484 151.1529 227° Southwest  Level FlightAware Approximate
Tue 01:28:00 AM 43.7580 151.0215 226° Southwest  Level FlightAware Approximate
Tue 01:29:00 AM 43.6675 150.8905 226° Southwest  Level FlightAware Approximate
Tue 01:30:00 AM 43.5768 150.7600 226° Southwest  Level FlightAware Approximate
Tue 01:31:00 AM 43.4860 150.6298 226° Southwest  Level FlightAware Approximate
Tue 01:32:00 AM 43.3950 150.5000 226° Southwest  Level FlightAware Approximate
Tue 01:33:00 AM 43.3041 150.3703 226° Southwest  Level FlightAware Approximate
Tue 01:34:00 AM 43.2131 150.2409 226° Southwest  Level FlightAware Approximate
Tue 01:35:00 AM 43.1220 150.1120 226° Southwest  Level FlightAware Approximate
Tue 01:36:00 AM 43.0307 149.9834 226° Southwest  Level FlightAware Approximate
Tue 01:37:00 AM 42.9392 149.8552 226° Southwest  Level FlightAware Approximate
Tue 01:38:00 AM 42.8476 149.7274 226° Southwest  Level FlightAware Approximate
Tue 01:38:19 AM 42.7310 149.4910 226° Southwest 480 552 36,000  Level FlightAware ADS-B
Tue 01:39:00 AM 42.7559 149.5999 226° Southwest  Level FlightAware Approximate
Tue 01:39:09 AM 42.6470 149.3750 225° Southwest 480 552 36,000  Level FlightAware ADS-B
Tue 01:39:49 AM 42.5920 149.3020 224° Southwest 481 554 36,000  Level FlightAware ADS-B
Tue 01:40:24 AM 42.5320 149.2180 226° Southwest 483 556 36,000  Level FlightAware ADS-B
Tue 01:41:09 AM 42.4610 149.1220 225° Southwest 483 556 36,000  Level FlightAware ADS-B
Tue 01:41:49 AM 42.4040 149.0450 225° Southwest 483 556 36,000  Level FlightAware ADS-B
Tue 01:42:34 AM 42.3270 148.9400 225° Southwest 484 557 36,000  Level FlightAware ADS-B
Tue 01:43:14 AM 42.2630 148.8540 225° Southwest 480 552 36,000  Level FlightAware ADS-B
Tue 01:43:54 AM 42.1990 148.7680 225° Southwest 480 552 36,000  Level FlightAware ADS-B
Tue 01:44:34 AM 42.1350 148.6800 226° Southwest 482 555 36,000  Level FlightAware ADS-B
Tue 01:45:14 AM 42.0710 148.5950 225° Southwest 483 556 36,000  Level FlightAware ADS-B
Tue 01:45:54 AM 42.0080 148.5110 225° Southwest 483 556 36,000  Level FlightAware ADS-B
Tue 01:46:34 AM 41.9430 148.4260 224° Southwest 481 554 36,000  Level FlightAware ADS-B
Tue 01:47:29 AM 41.8570 148.3110 225° Southwest 481 554 36,000  Level FlightAware ADS-B
Tue 01:48:14 AM 41.7820 148.2110 225° Southwest 483 556 36,000  Level FlightAware ADS-B
Tue 01:48:55 AM 41.7190 148.1290 224° Southwest 482 555 36,000  Level FlightAware ADS-B
Tue 01:49:39 AM 41.6450 148.0330 224° Southwest 486 559 36,000  Level FlightAware ADS-B
Tue 01:50:19 AM 41.5800 147.9520 223° Southwest 485 558 36,000  Level FlightAware ADS-B
Tue 01:51:04 AM 41.5080 147.8580 224° Southwest 479 551 36,000  Level FlightAware ADS-B
Tue 01:51:44 AM 41.4420 147.7730 224° Southwest 478 550 36,000  Level FlightAware ADS-B
Tue 01:52:39 AM 41.3580 147.6660 224° Southwest 476 548 36,000  Level FlightAware ADS-B
Tue 01:53:26 AM 41.2830 147.5730 223° Southwest 475 547 36,000  Level FlightAware ADS-B
Tue 01:54:22 AM 41.2020 147.4700 224° Southwest 471 542 36,000  Level FlightAware ADS-B
Tue 01:55:09 AM 41.1160 147.3610 224° Southwest 467 537 36,000  Level FlightAware ADS-B
Tue 01:55:44 AM 41.0590 147.2900 223° Southwest 471 542 36,000  Level FlightAware ADS-B
Tue 01:56:29 AM 40.9870 147.1980 224° Southwest 469 540 36,000  Level FlightAware ADS-B
Tue 01:57:09 AM 40.9240 147.1220 222° Southwest 469 540 36,000  Level FlightAware ADS-B
Tue 01:58:06 AM 40.8400 147.0160 224° Southwest 469 540 36,000  Level FlightAware ADS-B
Tue 01:58:49 AM 40.7660 146.9240 223° Southwest 469 540 36,000  Level FlightAware ADS-B
Tue 01:59:24 AM 40.7140 146.8610 223° Southwest 469 540 36,000  Level FlightAware ADS-B
Tue 01:59:49 AM 40.6780 146.8160 223° Southwest 464 534 36,000  Level FlightAware ADS-B
Tue 02:01:03 AM 40.5820 146.6980 223° Southwest 466 536 36,000  Level FlightAware ADS-B
Tue 02:01:44 AM 40.4930 146.5880 223° Southwest 467 537 36,000  Level FlightAware ADS-B
Tue 02:02:29 AM 40.4150 146.4940 223° Southwest 468 539 36,000  Level FlightAware ADS-B
Tue 02:03:14 AM 40.3420 146.4040 223° Southwest 469 540 36,000  Level FlightAware ADS-B
Tue 02:04:04 AM 40.2610 146.3070 222° Southwest 467 537 36,000  Level FlightAware ADS-B
Tue 02:05:04 AM 40.1490 146.2170 212° Southwest 476 548 36,000  Level FlightAware ADS-B
Tue 02:05:39 AM 40.0900 146.1550 219° Southwest 471 542 36,000  Level FlightAware ADS-B
Tue 02:06:22 AM 40.0250 146.0810 221° Southwest 478 550 36,000  Level FlightAware ADS-B
Tue 02:06:58 AM 39.9740 146.0230 221° Southwest 478 550 36,000  Level FlightAware ADS-B
Tue 02:07:34 AM 39.9230 145.9660 221° Southwest 478 550 36,000  Level FlightAware ADS-B
Tue 02:08:22 AM 39.8550 145.8880 221° Southwest 478 550 36,000  Level FlightAware ADS-B
Tue 02:08:58 AM 39.8040 145.8310 221° Southwest 478 550 36,000  Level FlightAware ADS-B
Tue 02:09:46 AM 39.7360 145.7540 221° Southwest 478 550 36,000  Level FlightAware ADS-B
Tue 02:10:22 AM 39.6850 145.6960 221° Southwest 478 550 36,000  Level FlightAware ADS-B
Tue 02:11:10 AM 39.6170 145.6190 221° Southwest 478 550 36,000  Level FlightAware ADS-B
Tue 02:11:46 AM 39.5660 145.5610 221° Southwest 478 550 36,000  Level FlightAware ADS-B
Tue 02:12:22 AM 39.5150 145.5040 221° Southwest 478 550 36,000  Level FlightAware ADS-B
Tue 02:13:10 AM 39.4470 145.4270 221° Southwest 478 550 36,000  Level FlightAware ADS-B
Tue 02:13:46 AM 39.3960 145.3700 221° Southwest 478 550 36,000  Level FlightAware ADS-B
Tue 02:14:22 AM 39.3450 145.3120 221° Southwest 478 550 36,000  Level FlightAware ADS-B
Tue 02:15:00 AM 39.1620 145.0600 227° Southwest 479 551 36,000  Level FlightAware ADS-B
Tue 02:15:45 AM 39.0870 144.9750 221° Southwest 479 551 36,000  Level FlightAware ADS-B
Tue 02:16:27 AM 39.0300 144.9080 222° Southwest 480 552 36,000  Level FlightAware ADS-B
Tue 02:17:11 AM 38.9450 144.8110 222° Southwest 36,000  Level FlightAware ADS-B
Tue 02:17:50 AM 38.8770 144.7320 222° Southwest 485 558 36,000  Level FlightAware ADS-B
Tue 02:18:50 AM 38.7740 144.6140 222° Southwest 497 572 36,000  Level FlightAware ADS-B
Tue 02:19:35 AM 38.6970 144.5280 221° Southwest 499 574 36,000  Level FlightAware ADS-B
Tue 02:20:20 AM 38.6190 144.4370 222° Southwest 497 572 36,000  Level FlightAware ADS-B
Tue 02:21:05 AM 38.5410 144.3500 221° Southwest 503 579 36,000  Level FlightAware ADS-B
Tue 02:21:45 AM 38.4700 144.2690 222° Southwest 513 590 36,000  Level FlightAware ADS-B
Tue 02:22:25 AM 38.3990 144.1890 221° Southwest 515 593 36,000  Level FlightAware ADS-B
Tue 02:23:05 AM 38.3300 144.1120 221° Southwest 519 597 36,000  Level FlightAware ADS-B
Tue 02:23:50 AM 38.2430 144.0150 221° Southwest 516 594 36,000  Level FlightAware ADS-B
Tue 02:24:35 AM 38.1620 143.9230 222° Southwest 521 600 36,000  Level FlightAware ADS-B
Tue 02:25:15 AM 38.0950 143.8490 221° Southwest 530 610 36,000  Level FlightAware ADS-B
Tue 02:25:55 AM 38.0140 143.7590 221° Southwest 524 603 36,000  Level FlightAware ADS-B
Tue 02:26:35 AM 37.9410 143.6780 221° Southwest 523 602 36,000  Level FlightAware ADS-B
Tue 02:27:20 AM 37.8570 143.5860 221° Southwest 529 609 36,000  Level FlightAware ADS-B
Tue 02:28:00 AM 37.7890 143.5100 221° Southwest 523 602 36,000  Level FlightAware ADS-B
Tue 02:28:45 AM 37.7040 143.4140 222° Southwest 523 602 36,000  Level FlightAware ADS-B
Tue 02:29:20 AM 37.6370 143.3400 221° Southwest 523 602 36,000  Level FlightAware ADS-B
Tue 02:30:05 AM 37.5560 143.2500 221° Southwest 525 604 36,000  Level FlightAware ADS-B
Tue 02:30:50 AM 37.4720 143.1550 222° Southwest 525 604 36,000 -375 Level FlightAware ADS-B
Tue 02:31:25 AM 37.4070 143.0840 221° Southwest 534 615 35,500 -1,520 Descending FlightAware ADS-B
Tue 02:32:05 AM 37.3270 143.0100 216° Southwest 542 624 34,100 -1,098 Descending FlightAware ADS-B
Tue 02:32:47 AM 37.2330 142.9580 204° Southwest 535 616 34,000 -78 Descending FlightAware ADS-B
Tue 02:33:22 AM 37.1530 142.9160 203° Southwest 541 623 34,000  Level FlightAware ADS-B
Tue 02:34:05 AM 37.0500 142.8650 202° Southwest 535 616 34,000  Level FlightAware ADS-B
Tue 02:34:50 AM 36.9460 142.8120 202° Southwest 537 618 34,000  Level FlightAware ADS-B
Tue 02:35:30 AM 36.8520 142.7660 201° Southwest 538 619 34,000  Level FlightAware ADS-B
Tue 02:36:10 AM 36.7570 142.7180 202° Southwest 539 620 34,000  Level FlightAware ADS-B
Tue 02:36:55 AM 36.6520 142.6650 202° Southwest 538 619 34,000  Level FlightAware ADS-B
Tue 02:37:50 AM 36.5270 142.5930 205° Southwest 533 613 34,000  Level FlightAware ADS-B
Tue 02:38:25 AM 36.4510 142.5400 209° Southwest 538 619 34,000 -225 Level FlightAware ADS-B
Tue 02:39:10 AM 36.3530 142.4730 209° Southwest 520 598 33,700 -565 Descending FlightAware ADS-B
Tue 02:39:50 AM 36.2700 142.4160 209° Southwest 513 590 33,200 -1,067 Descending FlightAware ADS-B
Tue 02:40:40 AM 36.1650 142.3530 206° Southwest 488 562 32,100 -1,333 Descending FlightAware ADS-B
Tue 02:41:20 AM 36.0800 142.3330 191° South 472 543 31,200 -1,412 Descending FlightAware ADS-B
Tue 02:42:05 AM 35.9800 142.3140 189° South 451 519 30,100 -1,360 Descending FlightAware ADS-B
Tue 02:42:35 AM 35.9190 142.3130 181° South 449 517 29,500 -1,167 Descending FlightAware ADS-B
Tue 02:43:17 AM 35.8390 142.3140 179° South 422 486 28,700 -1,373 Descending FlightAware ADS-B
Tue 02:43:58 AM 35.7550 142.3170 178° South 418 481 27,600 -1,674 Descending FlightAware ADS-B
Tue 02:44:43 AM 35.6700 142.3040 187° South 394 453 26,300 -1,748 Descending FlightAware ADS-B
Tue 02:45:41 AM 35.5790 142.2460 207° Southwest 381 438 24,600 -1,860 Descending FlightAware ADS-B
Tue 02:46:23 AM 35.5240 142.1990 215° Southwest 370 426 23,200 -2,105 Descending FlightAware ADS-B
Tue 02:46:38 AM 35.5140 142.1650 250° West 346 398 22,600 -2,250 Descending FlightAware ADS-B
Tue 02:47:03 AM 35.5200 142.1190 279° West 325 374 21,700 -1,831 Descending FlightAware ADS-B
Tue 02:47:37 AM 35.5450 142.0680 301° West 317 365 20,800 -1,558 Descending FlightAware ADS-B
Tue 02:48:20 AM 35.5770 142.0010 300° West 317 365 19,700 -1,650 Descending FlightAware ADS-B
Tue 02:48:57 AM 35.5920 141.9400 287° West 318 366 18,600 -1,688 Descending FlightAware ADS-B
Tue 02:49:56 AM 35.5880 141.8350 267° West 318 366 17,000 -1,560 Descending FlightAware ADS-B
Tue 02:50:37 AM 35.5830 141.7660 265° West 317 365 16,000 -698 Descending FlightAware ADS-B
Tue 02:51:22 AM 35.5790 141.6890 266° West 288 331 16,000  Level FlightAware ADS-B
Tue 02:52:17 AM 35.5750 141.6020 267° West 285 328 16,000  Level FlightAware ADS-B
Tue 02:52:40 AM 35.6050 141.5630 313° West 277 319 16,000  Level FlightAware ADS-B
Tue 02:53:18 AM 35.6290 141.5170 303° West 276 318 16,000  Level FlightAware ADS-B
Tue 02:53:36 AM 35.6460 141.4960 315° West 279 321 16,000  Level FlightAware ADS-B
Tue 02:54:13 AM 35.6870 141.4580 323° Northwest 281 323 16,000  Level FlightAware ADS-B
Tue 02:54:48 AM 35.7230 141.4260 324° Northwest 277 319 16,000  Level FlightAware ADS-B
Tue 02:55:37 AM 35.7710 141.3820 323° Northwest 279 321 16,000  Level FlightAware ADS-B
Tue 02:56:14 AM 35.8160 141.3400 323° Northwest 281 323 16,000  Level FlightAware ADS-B
Tue 02:56:53 AM 35.8520 141.3050 322° Northwest 278 320 16,000  Level FlightAware ADS-B
Tue 02:57:38 AM 35.8490 141.2340 267° West 298 343 16,000  Level FlightAware ADS-B
Tue 02:57:53 AM 35.8340 141.2180 221° Southwest 305 351 16,000 -984 Level FlightAware ADS-B
Tue 02:58:39 AM 35.7780 141.1790 209° Southwest 300 345 15,000 -1,200 Descending FlightAware ADS-B
Tue 02:59:13 AM 35.7400 141.1480 214° Southwest 285 328 14,400 -1,091 Descending FlightAware ADS-B
Tue 02:59:23 AM 35.7330 141.1360 234° Southwest 275 316 14,200 -1,440 Descending FlightAware ADS-B
Tue 02:59:38 AM 35.7240 141.1130 244° Southwest 267 307 13,800 -1,440 Descending FlightAware ADS-B
Tue 02:59:48 AM 35.7230 141.1010 264° West 260 299 13,600 -1,474 Descending FlightAware ADS-B
Tue 03:00:35 AM 35.7340 141.0300 281° West 260 299 12,400 -1,364 Descending FlightAware ADS-B
Tue 03:01:16 AM 35.7550 140.9780 296° West 247 284 11,600 -1,026 Descending FlightAware ADS-B
Tue 03:01:51 AM 35.7860 140.9460 320° Northwest 248 285 11,100 -789 Descending FlightAware ADS-B
Tue 03:02:32 AM 35.8250 140.9110 324° Northwest 247 284 10,600 -814 Descending FlightAware ADS-B
Tue 03:02:50 AM 35.8380 140.8900 307° West 253 291 10,300 -1,000 Descending FlightAware ADS-B
Tue 03:03:02 AM 35.8400 140.8760 280° West 258 297 10,100 -1,077 Descending FlightAware ADS-B
Tue 03:03:29 AM 35.8240 140.8360 244° Southwest 281 323 9,600 -1,116 Descending FlightAware ADS-B
Tue 03:03:45 AM 35.8050 140.8250 205° Southwest 293 337 9,300 -558 Descending FlightAware ADS-B
Tue 03:04:12 AM 35.7690 140.8190 188° South 299 344 9,200 -321 Descending FlightAware ADS-B
Tue 03:04:41 AM 35.7290 140.8100 190° South 286 329 9,000 -712 Descending FlightAware ADS-B
Tue 03:05:11 AM 35.6900 140.7950 197° South 287 330 8,500 -1,111 Descending FlightAware ADS-B
Tue 03:05:35 AM 35.6600 140.7830 198° South 270 311 8,000 -1,350 Descending FlightAware ADS-B
Tue 03:05:51 AM 35.6420 140.7750 200° South 270 311 7,600 -1,463 Descending FlightAware ADS-B
Tue 03:06:16 AM 35.6110 140.7620 199° South 277 319 7,000 -1,527 Descending FlightAware ADS-B
Tue 03:06:46 AM 35.5820 140.7490 200° South 273 314 6,200 -1,831 Descending FlightAware ADS-B
Tue 03:07:15 AM 35.5470 140.7340 199° South 259 298 5,200 -1,667 Descending FlightAware ADS-B
Tue 03:07:40 AM 35.5140 140.7200 199° South 237 273 4,700 -1,154 Descending FlightAware ADS-B
Tue 03:08:07 AM 35.4890 140.7040 208° Southwest 232 267 4,200 -508 Descending FlightAware ADS-B
Tue 03:08:39 AM 35.4680 140.6740 229° Southwest 215 247 4,200  Level FlightAware ADS-B
Tue 03:08:53 AM 35.4640 140.6640 244° Southwest 206 237 4,200  Level FlightAware ADS-B
Tue 03:09:00 AM 35.4620 140.6520 258° West 205 236 4,200  Level FlightAware ADS-B
Tue 03:09:20 AM 35.4700 140.6260 291° West 186 214 4,200  Level FlightAware ADS-B
Tue 03:09:50 AM 35.4810 140.6030 300° West 174 200 4,200  Level FlightAware ADS-B
Tue 03:10:14 AM 35.4930 140.5770 300° West 174 200 4,200  Level FlightAware ADS-B
Tue 03:10:44 AM 35.5100 140.5580 318° Northwest 169 194 4,200  Level FlightAware ADS-B
Tue 03:11:15 AM 35.5330 140.5430 332° Northwest 170 196 4,200  Level FlightAware ADS-B
Tue 03:11:40 AM 35.5510 140.5290 328° Northwest 168 193 4,200 -111 Level FlightAware ADS-B
Tue 03:12:09 AM 35.5720 140.5150 332° Northwest 172 198 4,100 -600 Descending FlightAware ADS-B
Tue 03:12:40 AM 35.5930 140.4990 328° Northwest 172 198 3,600 -750 Descending FlightAware ADS-B
Tue 03:13:05 AM 35.6060 140.4900 331° Northwest 169 194 3,400 -873 Descending FlightAware ADS-B
Tue 03:13:35 AM 35.6330 140.4710 330° Northwest 174 200 2,800 -1,034 Descending FlightAware ADS-B
Tue 03:14:03 AM 35.6520 140.4560 327° Northwest 177 204 2,400 -964 Descending FlightAware ADS-B
Tue 03:14:31 AM 35.6720 140.4430 332° Northwest 163 188 1,900 -857 Descending FlightAware ADS-B
Tue 03:14:59 AM 35.6890 140.4300 328° Northwest 157 181 1,600 -750 Descending FlightAware ADS-B
Tue 03:15:27 AM 35.7060 140.4180 330° Northwest 155 178 1,200 -873 Descending FlightAware ADS-B
Tue 03:15:54 AM 35.7220 140.4060 329° Northwest 153 176 800 -764 Descending FlightAware ADS-B
Tue 03:16:22 AM 35.7400 140.3940 332° Northwest 155 178 500 -321 Descending FlightAware ADS-B
Tue 03:16:50 AM 35.7540 140.3830 327° Northwest 155 178 500  Level FlightAware ADS-B

Login

Don't have an account? Register now (free) for customized features, flight alerts, and more!